<?xml version="1.0" encoding="UTF-8" standalone="no" ?>
<gpx xmlns="http://www.topografix.com/GPX/1/1" xmlns:xsi="http://www.w3.org/2001/XMLSchema-instance" xsi:schemaLocation="http://www.topografix.com/GPX/1/1 http://www.topografix.com/GPX/1/1/gpx.xsd" version="1.1" creator="VisuGPX - https://www.visugpx.com">
  <metadata>
    <name>2022-12-23 12:19:30 [Suunto App]</name>
  </metadata>
  <trk>
    <name><![CDATA[2022-12-23 12:19:30 [Suunto App]_1]]></name>
    <trkseg>
      <trkpt lat="43.61943" lon="1.3062">
        <ele>178</ele>
        <time>2022-12-23T11:19:30Z</time>
      </trkpt>
      <trkpt lat="43.6195" lon="1.30611">
        <ele>178</ele>
        <time>2022-12-23T11:19:34Z</time>
      </trkpt>
      <trkpt lat="43.61956" lon="1.306">
        <ele>178</ele>
        <time>2022-12-23T11:19:39Z</time>
      </trkpt>
      <trkpt lat="43.61964" lon="1.3059">
        <ele>178</ele>
        <time>2022-12-23T11:19:44Z</time>
      </trkpt>
      <trkpt lat="43.61973" lon="1.3058">
        <ele>178</ele>
        <time>2022-12-23T11:19:49Z</time>
      </trkpt>
      <trkpt lat="43.61981" lon="1.3057">
        <ele>178</ele>
        <time>2022-12-23T11:19:54Z</time>
      </trkpt>
      <trkpt lat="43.61987" lon="1.30558">
        <ele>178</ele>
        <time>2022-12-23T11:20:00Z</time>
      </trkpt>
      <trkpt lat="43.61995" lon="1.30565">
        <ele>178</ele>
        <time>2022-12-23T11:20:04Z</time>
      </trkpt>
      <trkpt lat="43.62003" lon="1.30575">
        <ele>178</ele>
        <time>2022-12-23T11:20:08Z</time>
      </trkpt>
      <trkpt lat="43.62009" lon="1.30587">
        <ele>178</ele>
        <time>2022-12-23T11:20:12Z</time>
      </trkpt>
      <trkpt lat="43.62015" lon="1.30598">
        <ele>178</ele>
        <time>2022-12-23T11:20:17Z</time>
      </trkpt>
      <trkpt lat="43.62022" lon="1.30609">
        <ele>178</ele>
        <time>2022-12-23T11:20:22Z</time>
      </trkpt>
      <trkpt lat="43.6203" lon="1.30619">
        <ele>178</ele>
        <time>2022-12-23T11:20:26Z</time>
      </trkpt>
      <trkpt lat="43.62036" lon="1.30629">
        <ele>178</ele>
        <time>2022-12-23T11:20:31Z</time>
      </trkpt>
      <trkpt lat="43.62043" lon="1.30638">
        <ele>178</ele>
        <time>2022-12-23T11:20:35Z</time>
      </trkpt>
      <trkpt lat="43.6205" lon="1.30647">
        <ele>178</ele>
        <time>2022-12-23T11:20:39Z</time>
      </trkpt>
      <trkpt lat="43.62057" lon="1.30655">
        <ele>178</ele>
        <time>2022-12-23T11:20:43Z</time>
      </trkpt>
      <trkpt lat="43.62063" lon="1.30666">
        <ele>178</ele>
        <time>2022-12-23T11:20:48Z</time>
      </trkpt>
      <trkpt lat="43.62071" lon="1.30675">
        <ele>178</ele>
        <time>2022-12-23T11:20:52Z</time>
      </trkpt>
      <trkpt lat="43.62079" lon="1.30685">
        <ele>178</ele>
        <time>2022-12-23T11:20:57Z</time>
      </trkpt>
      <trkpt lat="43.62086" lon="1.30693">
        <ele>178</ele>
        <time>2022-12-23T11:21:01Z</time>
      </trkpt>
      <trkpt lat="43.62095" lon="1.30702">
        <ele>178</ele>
        <time>2022-12-23T11:21:06Z</time>
      </trkpt>
      <trkpt lat="43.62104" lon="1.30712">
        <ele>178</ele>
        <time>2022-12-23T11:21:11Z</time>
      </trkpt>
      <trkpt lat="43.62111" lon="1.3072">
        <ele>178</ele>
        <time>2022-12-23T11:21:15Z</time>
      </trkpt>
      <trkpt lat="43.62117" lon="1.30729">
        <ele>178</ele>
        <time>2022-12-23T11:21:19Z</time>
      </trkpt>
      <trkpt lat="43.62125" lon="1.30738">
        <ele>178</ele>
        <time>2022-12-23T11:21:24Z</time>
      </trkpt>
      <trkpt lat="43.62133" lon="1.30748">
        <ele>178</ele>
        <time>2022-12-23T11:21:28Z</time>
      </trkpt>
      <trkpt lat="43.62141" lon="1.30756">
        <ele>178</ele>
        <time>2022-12-23T11:21:32Z</time>
      </trkpt>
      <trkpt lat="43.62148" lon="1.30763">
        <ele>178</ele>
        <time>2022-12-23T11:21:36Z</time>
      </trkpt>
      <trkpt lat="43.62158" lon="1.30772">
        <ele>178</ele>
        <time>2022-12-23T11:21:40Z</time>
      </trkpt>
      <trkpt lat="43.62166" lon="1.30781">
        <ele>178</ele>
        <time>2022-12-23T11:21:45Z</time>
      </trkpt>
      <trkpt lat="43.62174" lon="1.3079">
        <ele>178</ele>
        <time>2022-12-23T11:21:50Z</time>
      </trkpt>
      <trkpt lat="43.62182" lon="1.30801">
        <ele>178</ele>
        <time>2022-12-23T11:21:55Z</time>
      </trkpt>
      <trkpt lat="43.6219" lon="1.30809">
        <ele>178</ele>
        <time>2022-12-23T11:21:59Z</time>
      </trkpt>
      <trkpt lat="43.62197" lon="1.30817">
        <ele>178</ele>
        <time>2022-12-23T11:22:03Z</time>
      </trkpt>
      <trkpt lat="43.62202" lon="1.30828">
        <ele>178</ele>
        <time>2022-12-23T11:22:07Z</time>
      </trkpt>
      <trkpt lat="43.62205" lon="1.30842">
        <ele>177</ele>
        <time>2022-12-23T11:22:11Z</time>
      </trkpt>
      <trkpt lat="43.62203" lon="1.30856">
        <ele>177</ele>
        <time>2022-12-23T11:22:15Z</time>
      </trkpt>
      <trkpt lat="43.62205" lon="1.30869">
        <ele>178</ele>
        <time>2022-12-23T11:22:21Z</time>
      </trkpt>
      <trkpt lat="43.62215" lon="1.30872">
        <ele>178</ele>
        <time>2022-12-23T11:22:25Z</time>
      </trkpt>
      <trkpt lat="43.62226" lon="1.30869">
        <ele>177</ele>
        <time>2022-12-23T11:22:29Z</time>
      </trkpt>
      <trkpt lat="43.62235" lon="1.30863">
        <ele>177</ele>
        <time>2022-12-23T11:22:33Z</time>
      </trkpt>
      <trkpt lat="43.62245" lon="1.3086">
        <ele>178</ele>
        <time>2022-12-23T11:22:37Z</time>
      </trkpt>
      <trkpt lat="43.62254" lon="1.30858">
        <ele>177</ele>
        <time>2022-12-23T11:22:41Z</time>
      </trkpt>
      <trkpt lat="43.62265" lon="1.30857">
        <ele>177</ele>
        <time>2022-12-23T11:22:45Z</time>
      </trkpt>
      <trkpt lat="43.62275" lon="1.30853">
        <ele>177</ele>
        <time>2022-12-23T11:22:49Z</time>
      </trkpt>
      <trkpt lat="43.62285" lon="1.3085">
        <ele>177</ele>
        <time>2022-12-23T11:22:53Z</time>
      </trkpt>
      <trkpt lat="43.62295" lon="1.30848">
        <ele>177</ele>
        <time>2022-12-23T11:22:57Z</time>
      </trkpt>
      <trkpt lat="43.62306" lon="1.30843">
        <ele>177</ele>
        <time>2022-12-23T11:23:02Z</time>
      </trkpt>
      <trkpt lat="43.62315" lon="1.30841">
        <ele>177</ele>
        <time>2022-12-23T11:23:06Z</time>
      </trkpt>
      <trkpt lat="43.62324" lon="1.30837">
        <ele>177</ele>
        <time>2022-12-23T11:23:10Z</time>
      </trkpt>
      <trkpt lat="43.62335" lon="1.30832">
        <ele>176</ele>
        <time>2022-12-23T11:23:14Z</time>
      </trkpt>
      <trkpt lat="43.62345" lon="1.30828">
        <ele>176</ele>
        <time>2022-12-23T11:23:18Z</time>
      </trkpt>
      <trkpt lat="43.62354" lon="1.30825">
        <ele>176</ele>
        <time>2022-12-23T11:23:22Z</time>
      </trkpt>
      <trkpt lat="43.62363" lon="1.30822">
        <ele>176</ele>
        <time>2022-12-23T11:23:26Z</time>
      </trkpt>
      <trkpt lat="43.62375" lon="1.30818">
        <ele>176</ele>
        <time>2022-12-23T11:23:30Z</time>
      </trkpt>
      <trkpt lat="43.62385" lon="1.30815">
        <ele>176</ele>
        <time>2022-12-23T11:23:34Z</time>
      </trkpt>
      <trkpt lat="43.62395" lon="1.30812">
        <ele>176</ele>
        <time>2022-12-23T11:23:38Z</time>
      </trkpt>
      <trkpt lat="43.62404" lon="1.30807">
        <ele>175</ele>
        <time>2022-12-23T11:23:42Z</time>
      </trkpt>
      <trkpt lat="43.62414" lon="1.30803">
        <ele>175</ele>
        <time>2022-12-23T11:23:46Z</time>
      </trkpt>
      <trkpt lat="43.62423" lon="1.308">
        <ele>175</ele>
        <time>2022-12-23T11:23:50Z</time>
      </trkpt>
      <trkpt lat="43.62432" lon="1.30795">
        <ele>176</ele>
        <time>2022-12-23T11:23:54Z</time>
      </trkpt>
      <trkpt lat="43.62442" lon="1.30794">
        <ele>176</ele>
        <time>2022-12-23T11:23:58Z</time>
      </trkpt>
      <trkpt lat="43.62452" lon="1.30793">
        <ele>175</ele>
        <time>2022-12-23T11:24:02Z</time>
      </trkpt>
      <trkpt lat="43.62462" lon="1.30792">
        <ele>175</ele>
        <time>2022-12-23T11:24:06Z</time>
      </trkpt>
      <trkpt lat="43.62473" lon="1.30789">
        <ele>176</ele>
        <time>2022-12-23T11:24:10Z</time>
      </trkpt>
      <trkpt lat="43.62483" lon="1.30787">
        <ele>176</ele>
        <time>2022-12-23T11:24:14Z</time>
      </trkpt>
      <trkpt lat="43.62492" lon="1.30784">
        <ele>176</ele>
        <time>2022-12-23T11:24:18Z</time>
      </trkpt>
      <trkpt lat="43.62502" lon="1.30778">
        <ele>175</ele>
        <time>2022-12-23T11:24:22Z</time>
      </trkpt>
      <trkpt lat="43.62512" lon="1.30776">
        <ele>175</ele>
        <time>2022-12-23T11:24:26Z</time>
      </trkpt>
      <trkpt lat="43.62522" lon="1.30777">
        <ele>175</ele>
        <time>2022-12-23T11:24:30Z</time>
      </trkpt>
      <trkpt lat="43.62531" lon="1.30785">
        <ele>175</ele>
        <time>2022-12-23T11:24:34Z</time>
      </trkpt>
      <trkpt lat="43.62537" lon="1.30771">
        <ele>175</ele>
        <time>2022-12-23T11:24:40Z</time>
      </trkpt>
      <trkpt lat="43.62544" lon="1.30762">
        <ele>175</ele>
        <time>2022-12-23T11:24:44Z</time>
      </trkpt>
      <trkpt lat="43.62552" lon="1.30756">
        <ele>175</ele>
        <time>2022-12-23T11:24:47Z</time>
      </trkpt>
      <trkpt lat="43.62562" lon="1.3075">
        <ele>175</ele>
        <time>2022-12-23T11:24:51Z</time>
      </trkpt>
      <trkpt lat="43.62572" lon="1.30744">
        <ele>175</ele>
        <time>2022-12-23T11:24:55Z</time>
      </trkpt>
      <trkpt lat="43.62581" lon="1.30738">
        <ele>175</ele>
        <time>2022-12-23T11:24:59Z</time>
      </trkpt>
      <trkpt lat="43.62591" lon="1.30733">
        <ele>175</ele>
        <time>2022-12-23T11:25:03Z</time>
      </trkpt>
      <trkpt lat="43.62602" lon="1.30727">
        <ele>175</ele>
        <time>2022-12-23T11:25:07Z</time>
      </trkpt>
      <trkpt lat="43.62611" lon="1.30722">
        <ele>175</ele>
        <time>2022-12-23T11:25:12Z</time>
      </trkpt>
      <trkpt lat="43.62621" lon="1.30718">
        <ele>175</ele>
        <time>2022-12-23T11:25:15Z</time>
      </trkpt>
      <trkpt lat="43.62632" lon="1.30715">
        <ele>174</ele>
        <time>2022-12-23T11:25:19Z</time>
      </trkpt>
      <trkpt lat="43.62642" lon="1.3071">
        <ele>173</ele>
        <time>2022-12-23T11:25:23Z</time>
      </trkpt>
      <trkpt lat="43.62652" lon="1.30703">
        <ele>174</ele>
        <time>2022-12-23T11:25:27Z</time>
      </trkpt>
      <trkpt lat="43.6266" lon="1.30698">
        <ele>173</ele>
        <time>2022-12-23T11:25:31Z</time>
      </trkpt>
      <trkpt lat="43.62669" lon="1.30701">
        <ele>173</ele>
        <time>2022-12-23T11:25:35Z</time>
      </trkpt>
      <trkpt lat="43.62678" lon="1.30694">
        <ele>173</ele>
        <time>2022-12-23T11:25:39Z</time>
      </trkpt>
      <trkpt lat="43.62682" lon="1.30681">
        <ele>176</ele>
        <time>2022-12-23T11:25:44Z</time>
      </trkpt>
      <trkpt lat="43.62682" lon="1.30666">
        <ele>174</ele>
        <time>2022-12-23T11:25:48Z</time>
      </trkpt>
      <trkpt lat="43.62681" lon="1.30651">
        <ele>172</ele>
        <time>2022-12-23T11:25:52Z</time>
      </trkpt>
      <trkpt lat="43.6268" lon="1.30638">
        <ele>172</ele>
        <time>2022-12-23T11:25:55Z</time>
      </trkpt>
      <trkpt lat="43.62678" lon="1.30624">
        <ele>170</ele>
        <time>2022-12-23T11:25:58Z</time>
      </trkpt>
      <trkpt lat="43.62675" lon="1.30609">
        <ele>170</ele>
        <time>2022-12-23T11:26:02Z</time>
      </trkpt>
      <trkpt lat="43.62672" lon="1.30595">
        <ele>169</ele>
        <time>2022-12-23T11:26:06Z</time>
      </trkpt>
      <trkpt lat="43.62668" lon="1.3058">
        <ele>169</ele>
        <time>2022-12-23T11:26:10Z</time>
      </trkpt>
      <trkpt lat="43.62665" lon="1.30565">
        <ele>167</ele>
        <time>2022-12-23T11:26:14Z</time>
      </trkpt>
      <trkpt lat="43.62662" lon="1.3055">
        <ele>168</ele>
        <time>2022-12-23T11:26:18Z</time>
      </trkpt>
      <trkpt lat="43.62658" lon="1.30538">
        <ele>170</ele>
        <time>2022-12-23T11:26:22Z</time>
      </trkpt>
      <trkpt lat="43.62654" lon="1.30523">
        <ele>171</ele>
        <time>2022-12-23T11:26:26Z</time>
      </trkpt>
      <trkpt lat="43.62649" lon="1.30509">
        <ele>171</ele>
        <time>2022-12-23T11:26:30Z</time>
      </trkpt>
      <trkpt lat="43.62644" lon="1.30493">
        <ele>172</ele>
        <time>2022-12-23T11:26:34Z</time>
      </trkpt>
      <trkpt lat="43.6264" lon="1.30481">
        <ele>172</ele>
        <time>2022-12-23T11:26:38Z</time>
      </trkpt>
      <trkpt lat="43.62637" lon="1.30468">
        <ele>172</ele>
        <time>2022-12-23T11:26:42Z</time>
      </trkpt>
      <trkpt lat="43.62637" lon="1.30454">
        <ele>172</ele>
        <time>2022-12-23T11:26:46Z</time>
      </trkpt>
      <trkpt lat="43.62638" lon="1.30448">
        <ele>172</ele>
        <time>2022-12-23T11:26:48Z</time>
      </trkpt>
      <trkpt lat="43.62642" lon="1.30434">
        <ele>169</ele>
        <time>2022-12-23T11:26:52Z</time>
      </trkpt>
      <trkpt lat="43.62643" lon="1.30418">
        <ele>168</ele>
        <time>2022-12-23T11:26:56Z</time>
      </trkpt>
      <trkpt lat="43.62644" lon="1.30415">
        <ele>167</ele>
        <time>2022-12-23T11:26:57Z</time>
      </trkpt>
      <trkpt lat="43.62642" lon="1.30405">
        <ele>166</ele>
        <time>2022-12-23T11:27:00Z</time>
      </trkpt>
      <trkpt lat="43.62643" lon="1.30401">
        <ele>165</ele>
        <time>2022-12-23T11:27:01Z</time>
      </trkpt>
      <trkpt lat="43.62646" lon="1.30388">
        <ele>165</ele>
        <time>2022-12-23T11:27:05Z</time>
      </trkpt>
      <trkpt lat="43.62644" lon="1.30374">
        <ele>165</ele>
        <time>2022-12-23T11:27:09Z</time>
      </trkpt>
      <trkpt lat="43.62647" lon="1.30362">
        <ele>159</ele>
        <time>2022-12-23T11:27:13Z</time>
      </trkpt>
      <trkpt lat="43.62647" lon="1.30355">
        <ele>158</ele>
        <time>2022-12-23T11:27:15Z</time>
      </trkpt>
      <trkpt lat="43.62646" lon="1.30351">
        <ele>157</ele>
        <time>2022-12-23T11:27:16Z</time>
      </trkpt>
      <trkpt lat="43.62647" lon="1.30347">
        <ele>157</ele>
        <time>2022-12-23T11:27:17Z</time>
      </trkpt>
      <trkpt lat="43.62647" lon="1.30344">
        <ele>156</ele>
        <time>2022-12-23T11:27:18Z</time>
      </trkpt>
      <trkpt lat="43.62648" lon="1.30341">
        <ele>156</ele>
        <time>2022-12-23T11:27:19Z</time>
      </trkpt>
      <trkpt lat="43.62647" lon="1.30337">
        <ele>156</ele>
        <time>2022-12-23T11:27:20Z</time>
      </trkpt>
      <trkpt lat="43.62646" lon="1.30334">
        <ele>156</ele>
        <time>2022-12-23T11:27:21Z</time>
      </trkpt>
      <trkpt lat="43.62647" lon="1.30332">
        <ele>155</ele>
        <time>2022-12-23T11:27:22Z</time>
      </trkpt>
      <trkpt lat="43.62647" lon="1.30328">
        <ele>155</ele>
        <time>2022-12-23T11:27:24Z</time>
      </trkpt>
      <trkpt lat="43.62646" lon="1.30324">
        <ele>154</ele>
        <time>2022-12-23T11:27:26Z</time>
      </trkpt>
      <trkpt lat="43.62644" lon="1.30322">
        <ele>154</ele>
        <time>2022-12-23T11:27:27Z</time>
      </trkpt>
      <trkpt lat="43.62642" lon="1.3032">
        <ele>154</ele>
        <time>2022-12-23T11:27:28Z</time>
      </trkpt>
      <trkpt lat="43.62633" lon="1.30319">
        <ele>154</ele>
        <time>2022-12-23T11:27:32Z</time>
      </trkpt>
      <trkpt lat="43.62624" lon="1.3032">
        <ele>154</ele>
        <time>2022-12-23T11:27:36Z</time>
      </trkpt>
      <trkpt lat="43.62613" lon="1.3032">
        <ele>155</ele>
        <time>2022-12-23T11:27:41Z</time>
      </trkpt>
      <trkpt lat="43.62604" lon="1.3032">
        <ele>155</ele>
        <time>2022-12-23T11:27:45Z</time>
      </trkpt>
      <trkpt lat="43.62594" lon="1.30319">
        <ele>155</ele>
        <time>2022-12-23T11:27:49Z</time>
      </trkpt>
      <trkpt lat="43.62584" lon="1.30317">
        <ele>158</ele>
        <time>2022-12-23T11:27:54Z</time>
      </trkpt>
      <trkpt lat="43.62574" lon="1.30316">
        <ele>159</ele>
        <time>2022-12-23T11:27:58Z</time>
      </trkpt>
      <trkpt lat="43.62564" lon="1.30315">
        <ele>159</ele>
        <time>2022-12-23T11:28:02Z</time>
      </trkpt>
      <trkpt lat="43.62555" lon="1.30313">
        <ele>161</ele>
        <time>2022-12-23T11:28:06Z</time>
      </trkpt>
      <trkpt lat="43.62546" lon="1.30312">
        <ele>162</ele>
        <time>2022-12-23T11:28:10Z</time>
      </trkpt>
      <trkpt lat="43.62536" lon="1.30313">
        <ele>164</ele>
        <time>2022-12-23T11:28:15Z</time>
      </trkpt>
      <trkpt lat="43.62527" lon="1.30314">
        <ele>166</ele>
        <time>2022-12-23T11:28:19Z</time>
      </trkpt>
      <trkpt lat="43.62518" lon="1.30314">
        <ele>167</ele>
        <time>2022-12-23T11:28:23Z</time>
      </trkpt>
      <trkpt lat="43.62509" lon="1.30313">
        <ele>168</ele>
        <time>2022-12-23T11:28:26Z</time>
      </trkpt>
      <trkpt lat="43.625" lon="1.30308">
        <ele>170</ele>
        <time>2022-12-23T11:28:30Z</time>
      </trkpt>
      <trkpt lat="43.62491" lon="1.30302">
        <ele>170</ele>
        <time>2022-12-23T11:28:34Z</time>
      </trkpt>
      <trkpt lat="43.62481" lon="1.30307">
        <ele>172</ele>
        <time>2022-12-23T11:28:41Z</time>
      </trkpt>
      <trkpt lat="43.62477" lon="1.30319">
        <ele>172</ele>
        <time>2022-12-23T11:28:45Z</time>
      </trkpt>
      <trkpt lat="43.62467" lon="1.30322">
        <ele>172</ele>
        <time>2022-12-23T11:28:49Z</time>
      </trkpt>
      <trkpt lat="43.62458" lon="1.30313">
        <ele>172</ele>
        <time>2022-12-23T11:28:53Z</time>
      </trkpt>
      <trkpt lat="43.62447" lon="1.30305">
        <ele>172</ele>
        <time>2022-12-23T11:28:57Z</time>
      </trkpt>
      <trkpt lat="43.62439" lon="1.30296">
        <ele>172</ele>
        <time>2022-12-23T11:29:01Z</time>
      </trkpt>
      <trkpt lat="43.6243" lon="1.30286">
        <ele>172</ele>
        <time>2022-12-23T11:29:05Z</time>
      </trkpt>
      <trkpt lat="43.62421" lon="1.30277">
        <ele>173</ele>
        <time>2022-12-23T11:29:10Z</time>
      </trkpt>
      <trkpt lat="43.62415" lon="1.30266">
        <ele>173</ele>
        <time>2022-12-23T11:29:14Z</time>
      </trkpt>
      <trkpt lat="43.62408" lon="1.30257">
        <ele>173</ele>
        <time>2022-12-23T11:29:18Z</time>
      </trkpt>
      <trkpt lat="43.62402" lon="1.30247">
        <ele>173</ele>
        <time>2022-12-23T11:29:22Z</time>
      </trkpt>
      <trkpt lat="43.62394" lon="1.3024">
        <ele>174</ele>
        <time>2022-12-23T11:29:26Z</time>
      </trkpt>
      <trkpt lat="43.62386" lon="1.30232">
        <ele>174</ele>
        <time>2022-12-23T11:29:30Z</time>
      </trkpt>
      <trkpt lat="43.62378" lon="1.30221">
        <ele>174</ele>
        <time>2022-12-23T11:29:34Z</time>
      </trkpt>
      <trkpt lat="43.6237" lon="1.30213">
        <ele>173</ele>
        <time>2022-12-23T11:29:38Z</time>
      </trkpt>
      <trkpt lat="43.62362" lon="1.30202">
        <ele>173</ele>
        <time>2022-12-23T11:29:42Z</time>
      </trkpt>
      <trkpt lat="43.62355" lon="1.30192">
        <ele>174</ele>
        <time>2022-12-23T11:29:46Z</time>
      </trkpt>
      <trkpt lat="43.62346" lon="1.30184">
        <ele>173</ele>
        <time>2022-12-23T11:29:50Z</time>
      </trkpt>
      <trkpt lat="43.62337" lon="1.30176">
        <ele>173</ele>
        <time>2022-12-23T11:29:54Z</time>
      </trkpt>
      <trkpt lat="43.62328" lon="1.30168">
        <ele>173</ele>
        <time>2022-12-23T11:29:58Z</time>
      </trkpt>
      <trkpt lat="43.62321" lon="1.3016">
        <ele>172</ele>
        <time>2022-12-23T11:30:02Z</time>
      </trkpt>
      <trkpt lat="43.62312" lon="1.30154">
        <ele>172</ele>
        <time>2022-12-23T11:30:06Z</time>
      </trkpt>
      <trkpt lat="43.62304" lon="1.30144">
        <ele>172</ele>
        <time>2022-12-23T11:30:10Z</time>
      </trkpt>
      <trkpt lat="43.62297" lon="1.30134">
        <ele>172</ele>
        <time>2022-12-23T11:30:14Z</time>
      </trkpt>
      <trkpt lat="43.62294" lon="1.30121">
        <ele>170</ele>
        <time>2022-12-23T11:30:18Z</time>
      </trkpt>
      <trkpt lat="43.62291" lon="1.30106">
        <ele>167</ele>
        <time>2022-12-23T11:30:22Z</time>
      </trkpt>
      <trkpt lat="43.62286" lon="1.30092">
        <ele>167</ele>
        <time>2022-12-23T11:30:25Z</time>
      </trkpt>
      <trkpt lat="43.62282" lon="1.30078">
        <ele>169</ele>
        <time>2022-12-23T11:30:28Z</time>
      </trkpt>
      <trkpt lat="43.62277" lon="1.30066">
        <ele>169</ele>
        <time>2022-12-23T11:30:31Z</time>
      </trkpt>
      <trkpt lat="43.6227" lon="1.30056">
        <ele>171</ele>
        <time>2022-12-23T11:30:35Z</time>
      </trkpt>
      <trkpt lat="43.62265" lon="1.30043">
        <ele>172</ele>
        <time>2022-12-23T11:30:39Z</time>
      </trkpt>
      <trkpt lat="43.62259" lon="1.3003">
        <ele>172</ele>
        <time>2022-12-23T11:30:43Z</time>
      </trkpt>
      <trkpt lat="43.62254" lon="1.3002">
        <ele>171</ele>
        <time>2022-12-23T11:30:46Z</time>
      </trkpt>
      <trkpt lat="43.62249" lon="1.3001">
        <ele>171</ele>
        <time>2022-12-23T11:30:49Z</time>
      </trkpt>
      <trkpt lat="43.62242" lon="1.29999">
        <ele>171</ele>
        <time>2022-12-23T11:30:53Z</time>
      </trkpt>
      <trkpt lat="43.62236" lon="1.29987">
        <ele>172</ele>
        <time>2022-12-23T11:30:58Z</time>
      </trkpt>
      <trkpt lat="43.6223" lon="1.29974">
        <ele>173</ele>
        <time>2022-12-23T11:31:03Z</time>
      </trkpt>
      <trkpt lat="43.62228" lon="1.29961">
        <ele>173</ele>
        <time>2022-12-23T11:31:07Z</time>
      </trkpt>
      <trkpt lat="43.62233" lon="1.29948">
        <ele>173</ele>
        <time>2022-12-23T11:31:13Z</time>
      </trkpt>
      <trkpt lat="43.62231" lon="1.29935">
        <ele>172</ele>
        <time>2022-12-23T11:31:16Z</time>
      </trkpt>
      <trkpt lat="43.62226" lon="1.29923">
        <ele>170</ele>
        <time>2022-12-23T11:31:22Z</time>
      </trkpt>
      <trkpt lat="43.62221" lon="1.29912">
        <ele>167</ele>
        <time>2022-12-23T11:31:27Z</time>
      </trkpt>
      <trkpt lat="43.62218" lon="1.299">
        <ele>165</ele>
        <time>2022-12-23T11:31:32Z</time>
      </trkpt>
      <trkpt lat="43.62218" lon="1.29895">
        <ele>165</ele>
        <time>2022-12-23T11:31:34Z</time>
      </trkpt>
      <trkpt lat="43.62219" lon="1.29891">
        <ele>162</ele>
        <time>2022-12-23T11:31:36Z</time>
      </trkpt>
      <trkpt lat="43.62219" lon="1.29889">
        <ele>162</ele>
        <time>2022-12-23T11:31:37Z</time>
      </trkpt>
      <trkpt lat="43.62218" lon="1.29876">
        <ele>159</ele>
        <time>2022-12-23T11:31:43Z</time>
      </trkpt>
      <trkpt lat="43.62217" lon="1.29874">
        <ele>159</ele>
        <time>2022-12-23T11:31:44Z</time>
      </trkpt>
      <trkpt lat="43.62217" lon="1.2987">
        <ele>158</ele>
        <time>2022-12-23T11:31:45Z</time>
      </trkpt>
      <trkpt lat="43.62216" lon="1.29858">
        <ele>155</ele>
        <time>2022-12-23T11:31:49Z</time>
      </trkpt>
      <trkpt lat="43.62216" lon="1.29844">
        <ele>153</ele>
        <time>2022-12-23T11:31:53Z</time>
      </trkpt>
      <trkpt lat="43.6222" lon="1.29831">
        <ele>153</ele>
        <time>2022-12-23T11:31:58Z</time>
      </trkpt>
      <trkpt lat="43.62211" lon="1.29823">
        <ele>148</ele>
        <time>2022-12-23T11:32:03Z</time>
      </trkpt>
      <trkpt lat="43.62208" lon="1.29812">
        <ele>148</ele>
        <time>2022-12-23T11:32:08Z</time>
      </trkpt>
      <trkpt lat="43.62218" lon="1.29804">
        <ele>148</ele>
        <time>2022-12-23T11:32:13Z</time>
      </trkpt>
      <trkpt lat="43.62226" lon="1.29796">
        <ele>148</ele>
        <time>2022-12-23T11:32:17Z</time>
      </trkpt>
      <trkpt lat="43.62236" lon="1.29788">
        <ele>148</ele>
        <time>2022-12-23T11:32:21Z</time>
      </trkpt>
      <trkpt lat="43.62245" lon="1.29784">
        <ele>148</ele>
        <time>2022-12-23T11:32:26Z</time>
      </trkpt>
      <trkpt lat="43.62247" lon="1.29782">
        <ele>148</ele>
        <time>2022-12-23T11:32:28Z</time>
      </trkpt>
      <trkpt lat="43.62252" lon="1.29777">
        <ele>150</ele>
        <time>2022-12-23T11:32:32Z</time>
      </trkpt>
      <trkpt lat="43.62255" lon="1.29777">
        <ele>150</ele>
        <time>2022-12-23T11:32:34Z</time>
      </trkpt>
      <trkpt lat="43.62257" lon="1.29777">
        <ele>150</ele>
        <time>2022-12-23T11:32:35Z</time>
      </trkpt>
      <trkpt lat="43.62266" lon="1.29771">
        <ele>147</ele>
        <time>2022-12-23T11:32:38Z</time>
      </trkpt>
      <trkpt lat="43.62275" lon="1.29765">
        <ele>147</ele>
        <time>2022-12-23T11:32:41Z</time>
      </trkpt>
      <trkpt lat="43.62286" lon="1.29761">
        <ele>147</ele>
        <time>2022-12-23T11:32:45Z</time>
      </trkpt>
      <trkpt lat="43.62296" lon="1.29757">
        <ele>147</ele>
        <time>2022-12-23T11:32:49Z</time>
      </trkpt>
      <trkpt lat="43.62306" lon="1.29752">
        <ele>147</ele>
        <time>2022-12-23T11:32:53Z</time>
      </trkpt>
      <trkpt lat="43.62316" lon="1.29745">
        <ele>147</ele>
        <time>2022-12-23T11:32:57Z</time>
      </trkpt>
      <trkpt lat="43.62323" lon="1.29735">
        <ele>147</ele>
        <time>2022-12-23T11:33:00Z</time>
      </trkpt>
      <trkpt lat="43.62335" lon="1.29734">
        <ele>147</ele>
        <time>2022-12-23T11:33:04Z</time>
      </trkpt>
      <trkpt lat="43.62345" lon="1.29738">
        <ele>147</ele>
        <time>2022-12-23T11:33:08Z</time>
      </trkpt>
      <trkpt lat="43.62353" lon="1.29748">
        <ele>147</ele>
        <time>2022-12-23T11:33:12Z</time>
      </trkpt>
      <trkpt lat="43.62359" lon="1.29759">
        <ele>147</ele>
        <time>2022-12-23T11:33:15Z</time>
      </trkpt>
      <trkpt lat="43.62368" lon="1.29769">
        <ele>147</ele>
        <time>2022-12-23T11:33:19Z</time>
      </trkpt>
      <trkpt lat="43.62378" lon="1.29775">
        <ele>146</ele>
        <time>2022-12-23T11:33:23Z</time>
      </trkpt>
      <trkpt lat="43.62387" lon="1.29779">
        <ele>146</ele>
        <time>2022-12-23T11:33:26Z</time>
      </trkpt>
      <trkpt lat="43.62396" lon="1.29785">
        <ele>146</ele>
        <time>2022-12-23T11:33:29Z</time>
      </trkpt>
      <trkpt lat="43.62406" lon="1.29795">
        <ele>146</ele>
        <time>2022-12-23T11:33:33Z</time>
      </trkpt>
      <trkpt lat="43.62413" lon="1.29806">
        <ele>146</ele>
        <time>2022-12-23T11:33:36Z</time>
      </trkpt>
      <trkpt lat="43.62417" lon="1.29821">
        <ele>147</ele>
        <time>2022-12-23T11:33:40Z</time>
      </trkpt>
      <trkpt lat="43.62421" lon="1.29835">
        <ele>147</ele>
        <time>2022-12-23T11:33:44Z</time>
      </trkpt>
      <trkpt lat="43.62426" lon="1.29846">
        <ele>147</ele>
        <time>2022-12-23T11:33:48Z</time>
      </trkpt>
      <trkpt lat="43.62432" lon="1.29856">
        <ele>147</ele>
        <time>2022-12-23T11:33:52Z</time>
      </trkpt>
      <trkpt lat="43.62441" lon="1.29863">
        <ele>147</ele>
        <time>2022-12-23T11:33:56Z</time>
      </trkpt>
      <trkpt lat="43.6245" lon="1.29864">
        <ele>147</ele>
        <time>2022-12-23T11:33:59Z</time>
      </trkpt>
      <trkpt lat="43.62462" lon="1.29862">
        <ele>147</ele>
        <time>2022-12-23T11:34:03Z</time>
      </trkpt>
      <trkpt lat="43.6247" lon="1.29859">
        <ele>147</ele>
        <time>2022-12-23T11:34:06Z</time>
      </trkpt>
      <trkpt lat="43.62479" lon="1.29856">
        <ele>147</ele>
        <time>2022-12-23T11:34:09Z</time>
      </trkpt>
      <trkpt lat="43.62488" lon="1.29854">
        <ele>147</ele>
        <time>2022-12-23T11:34:12Z</time>
      </trkpt>
      <trkpt lat="43.625" lon="1.29855">
        <ele>147</ele>
        <time>2022-12-23T11:34:16Z</time>
      </trkpt>
      <trkpt lat="43.6251" lon="1.2986">
        <ele>147</ele>
        <time>2022-12-23T11:34:20Z</time>
      </trkpt>
      <trkpt lat="43.62516" lon="1.29862">
        <ele>147</ele>
        <time>2022-12-23T11:34:22Z</time>
      </trkpt>
      <trkpt lat="43.62518" lon="1.29865">
        <ele>147</ele>
        <time>2022-12-23T11:34:23Z</time>
      </trkpt>
      <trkpt lat="43.62521" lon="1.29866">
        <ele>147</ele>
        <time>2022-12-23T11:34:24Z</time>
      </trkpt>
      <trkpt lat="43.62531" lon="1.29874">
        <ele>147</ele>
        <time>2022-12-23T11:34:28Z</time>
      </trkpt>
      <trkpt lat="43.62539" lon="1.29885">
        <ele>147</ele>
        <time>2022-12-23T11:34:32Z</time>
      </trkpt>
      <trkpt lat="43.62548" lon="1.29896">
        <ele>147</ele>
        <time>2022-12-23T11:34:36Z</time>
      </trkpt>
      <trkpt lat="43.62554" lon="1.29907">
        <ele>147</ele>
        <time>2022-12-23T11:34:39Z</time>
      </trkpt>
      <trkpt lat="43.6256" lon="1.29921">
        <ele>147</ele>
        <time>2022-12-23T11:34:43Z</time>
      </trkpt>
      <trkpt lat="43.62566" lon="1.29934">
        <ele>146</ele>
        <time>2022-12-23T11:34:47Z</time>
      </trkpt>
      <trkpt lat="43.62572" lon="1.29943">
        <ele>146</ele>
        <time>2022-12-23T11:34:50Z</time>
      </trkpt>
      <trkpt lat="43.62579" lon="1.29952">
        <ele>146</ele>
        <time>2022-12-23T11:34:54Z</time>
      </trkpt>
      <trkpt lat="43.62589" lon="1.29956">
        <ele>146</ele>
        <time>2022-12-23T11:34:58Z</time>
      </trkpt>
      <trkpt lat="43.626" lon="1.29962">
        <ele>146</ele>
        <time>2022-12-23T11:35:02Z</time>
      </trkpt>
      <trkpt lat="43.6261" lon="1.29967">
        <ele>146</ele>
        <time>2022-12-23T11:35:06Z</time>
      </trkpt>
      <trkpt lat="43.62621" lon="1.29974">
        <ele>146</ele>
        <time>2022-12-23T11:35:10Z</time>
      </trkpt>
      <trkpt lat="43.62629" lon="1.29981">
        <ele>146</ele>
        <time>2022-12-23T11:35:14Z</time>
      </trkpt>
      <trkpt lat="43.62638" lon="1.29987">
        <ele>146</ele>
        <time>2022-12-23T11:35:18Z</time>
      </trkpt>
      <trkpt lat="43.62646" lon="1.29994">
        <ele>146</ele>
        <time>2022-12-23T11:35:22Z</time>
      </trkpt>
      <trkpt lat="43.62653" lon="1.30005">
        <ele>146</ele>
        <time>2022-12-23T11:35:26Z</time>
      </trkpt>
      <trkpt lat="43.62658" lon="1.30021">
        <ele>146</ele>
        <time>2022-12-23T11:35:30Z</time>
      </trkpt>
      <trkpt lat="43.62662" lon="1.30034">
        <ele>146</ele>
        <time>2022-12-23T11:35:33Z</time>
      </trkpt>
      <trkpt lat="43.62668" lon="1.30046">
        <ele>146</ele>
        <time>2022-12-23T11:35:37Z</time>
      </trkpt>
      <trkpt lat="43.62674" lon="1.30057">
        <ele>146</ele>
        <time>2022-12-23T11:35:40Z</time>
      </trkpt>
      <trkpt lat="43.62679" lon="1.30068">
        <ele>146</ele>
        <time>2022-12-23T11:35:43Z</time>
      </trkpt>
      <trkpt lat="43.62685" lon="1.30079">
        <ele>145</ele>
        <time>2022-12-23T11:35:46Z</time>
      </trkpt>
      <trkpt lat="43.62691" lon="1.30091">
        <ele>145</ele>
        <time>2022-12-23T11:35:50Z</time>
      </trkpt>
      <trkpt lat="43.62698" lon="1.30101">
        <ele>145</ele>
        <time>2022-12-23T11:35:54Z</time>
      </trkpt>
      <trkpt lat="43.62705" lon="1.30111">
        <ele>145</ele>
        <time>2022-12-23T11:35:58Z</time>
      </trkpt>
      <trkpt lat="43.62709" lon="1.30124">
        <ele>144</ele>
        <time>2022-12-23T11:36:02Z</time>
      </trkpt>
      <trkpt lat="43.62713" lon="1.30136">
        <ele>144</ele>
        <time>2022-12-23T11:36:05Z</time>
      </trkpt>
      <trkpt lat="43.62721" lon="1.30147">
        <ele>145</ele>
        <time>2022-12-23T11:36:09Z</time>
      </trkpt>
      <trkpt lat="43.62727" lon="1.30159">
        <ele>145</ele>
        <time>2022-12-23T11:36:13Z</time>
      </trkpt>
      <trkpt lat="43.62735" lon="1.3017">
        <ele>145</ele>
        <time>2022-12-23T11:36:17Z</time>
      </trkpt>
      <trkpt lat="43.62743" lon="1.30181">
        <ele>145</ele>
        <time>2022-12-23T11:36:21Z</time>
      </trkpt>
      <trkpt lat="43.62743" lon="1.30197">
        <ele>145</ele>
        <time>2022-12-23T11:36:25Z</time>
      </trkpt>
      <trkpt lat="43.62749" lon="1.3021">
        <ele>144</ele>
        <time>2022-12-23T11:36:30Z</time>
      </trkpt>
      <trkpt lat="43.62759" lon="1.30216">
        <ele>144</ele>
        <time>2022-12-23T11:36:34Z</time>
      </trkpt>
      <trkpt lat="43.6277" lon="1.3022">
        <ele>144</ele>
        <time>2022-12-23T11:36:38Z</time>
      </trkpt>
      <trkpt lat="43.6278" lon="1.30222">
        <ele>144</ele>
        <time>2022-12-23T11:36:42Z</time>
      </trkpt>
      <trkpt lat="43.6279" lon="1.30227">
        <ele>144</ele>
        <time>2022-12-23T11:36:46Z</time>
      </trkpt>
      <trkpt lat="43.628" lon="1.30232">
        <ele>145</ele>
        <time>2022-12-23T11:36:50Z</time>
      </trkpt>
      <trkpt lat="43.6281" lon="1.30236">
        <ele>145</ele>
        <time>2022-12-23T11:36:54Z</time>
      </trkpt>
      <trkpt lat="43.6282" lon="1.30239">
        <ele>145</ele>
        <time>2022-12-23T11:36:57Z</time>
      </trkpt>
      <trkpt lat="43.62828" lon="1.30245">
        <ele>145</ele>
        <time>2022-12-23T11:37:01Z</time>
      </trkpt>
      <trkpt lat="43.62838" lon="1.30252">
        <ele>145</ele>
        <time>2022-12-23T11:37:05Z</time>
      </trkpt>
      <trkpt lat="43.62848" lon="1.30258">
        <ele>145</ele>
        <time>2022-12-23T11:37:09Z</time>
      </trkpt>
      <trkpt lat="43.62858" lon="1.30261">
        <ele>145</ele>
        <time>2022-12-23T11:37:13Z</time>
      </trkpt>
      <trkpt lat="43.62868" lon="1.30267">
        <ele>144</ele>
        <time>2022-12-23T11:37:17Z</time>
      </trkpt>
      <trkpt lat="43.62876" lon="1.30272">
        <ele>144</ele>
        <time>2022-12-23T11:37:20Z</time>
      </trkpt>
      <trkpt lat="43.62887" lon="1.30277">
        <ele>144</ele>
        <time>2022-12-23T11:37:24Z</time>
      </trkpt>
      <trkpt lat="43.62897" lon="1.30282">
        <ele>144</ele>
        <time>2022-12-23T11:37:28Z</time>
      </trkpt>
      <trkpt lat="43.62906" lon="1.30286">
        <ele>144</ele>
        <time>2022-12-23T11:37:31Z</time>
      </trkpt>
      <trkpt lat="43.62917" lon="1.3029">
        <ele>144</ele>
        <time>2022-12-23T11:37:35Z</time>
      </trkpt>
      <trkpt lat="43.62927" lon="1.30294">
        <ele>144</ele>
        <time>2022-12-23T11:37:39Z</time>
      </trkpt>
      <trkpt lat="43.62934" lon="1.30303">
        <ele>145</ele>
        <time>2022-12-23T11:37:42Z</time>
      </trkpt>
      <trkpt lat="43.62942" lon="1.30313">
        <ele>145</ele>
        <time>2022-12-23T11:37:46Z</time>
      </trkpt>
      <trkpt lat="43.6295" lon="1.3032">
        <ele>144</ele>
        <time>2022-12-23T11:37:50Z</time>
      </trkpt>
      <trkpt lat="43.62957" lon="1.30328">
        <ele>145</ele>
        <time>2022-12-23T11:37:54Z</time>
      </trkpt>
      <trkpt lat="43.62965" lon="1.30339">
        <ele>144</ele>
        <time>2022-12-23T11:37:58Z</time>
      </trkpt>
      <trkpt lat="43.6297" lon="1.30348">
        <ele>144</ele>
        <time>2022-12-23T11:38:01Z</time>
      </trkpt>
      <trkpt lat="43.62979" lon="1.30358">
        <ele>144</ele>
        <time>2022-12-23T11:38:05Z</time>
      </trkpt>
      <trkpt lat="43.62987" lon="1.30368">
        <ele>144</ele>
        <time>2022-12-23T11:38:09Z</time>
      </trkpt>
      <trkpt lat="43.62994" lon="1.30378">
        <ele>145</ele>
        <time>2022-12-23T11:38:14Z</time>
      </trkpt>
      <trkpt lat="43.63002" lon="1.30388">
        <ele>145</ele>
        <time>2022-12-23T11:38:17Z</time>
      </trkpt>
      <trkpt lat="43.63009" lon="1.30396">
        <ele>145</ele>
        <time>2022-12-23T11:38:20Z</time>
      </trkpt>
      <trkpt lat="43.63016" lon="1.30407">
        <ele>145</ele>
        <time>2022-12-23T11:38:24Z</time>
      </trkpt>
      <trkpt lat="43.63024" lon="1.30419">
        <ele>144</ele>
        <time>2022-12-23T11:38:28Z</time>
      </trkpt>
      <trkpt lat="43.63033" lon="1.30431">
        <ele>144</ele>
        <time>2022-12-23T11:38:32Z</time>
      </trkpt>
      <trkpt lat="43.63041" lon="1.30441">
        <ele>144</ele>
        <time>2022-12-23T11:38:36Z</time>
      </trkpt>
      <trkpt lat="43.63051" lon="1.30448">
        <ele>144</ele>
        <time>2022-12-23T11:38:41Z</time>
      </trkpt>
      <trkpt lat="43.6306" lon="1.30453">
        <ele>145</ele>
        <time>2022-12-23T11:38:45Z</time>
      </trkpt>
      <trkpt lat="43.63068" lon="1.30462">
        <ele>145</ele>
        <time>2022-12-23T11:38:49Z</time>
      </trkpt>
      <trkpt lat="43.63079" lon="1.30462">
        <ele>144</ele>
        <time>2022-12-23T11:38:53Z</time>
      </trkpt>
      <trkpt lat="43.63088" lon="1.30458">
        <ele>145</ele>
        <time>2022-12-23T11:38:56Z</time>
      </trkpt>
      <trkpt lat="43.63096" lon="1.30452">
        <ele>144</ele>
        <time>2022-12-23T11:38:59Z</time>
      </trkpt>
      <trkpt lat="43.63107" lon="1.30449">
        <ele>144</ele>
        <time>2022-12-23T11:39:03Z</time>
      </trkpt>
      <trkpt lat="43.63116" lon="1.30446">
        <ele>145</ele>
        <time>2022-12-23T11:39:06Z</time>
      </trkpt>
      <trkpt lat="43.63126" lon="1.30438">
        <ele>145</ele>
        <time>2022-12-23T11:39:10Z</time>
      </trkpt>
      <trkpt lat="43.63136" lon="1.30431">
        <ele>144</ele>
        <time>2022-12-23T11:39:14Z</time>
      </trkpt>
      <trkpt lat="43.63145" lon="1.30425">
        <ele>144</ele>
        <time>2022-12-23T11:39:18Z</time>
      </trkpt>
      <trkpt lat="43.63156" lon="1.30418">
        <ele>144</ele>
        <time>2022-12-23T11:39:22Z</time>
      </trkpt>
      <trkpt lat="43.63164" lon="1.30412">
        <ele>143</ele>
        <time>2022-12-23T11:39:25Z</time>
      </trkpt>
      <trkpt lat="43.63173" lon="1.30411">
        <ele>143</ele>
        <time>2022-12-23T11:39:28Z</time>
      </trkpt>
      <trkpt lat="43.63185" lon="1.30418">
        <ele>144</ele>
        <time>2022-12-23T11:39:32Z</time>
      </trkpt>
      <trkpt lat="43.63189" lon="1.30432">
        <ele>143</ele>
        <time>2022-12-23T11:39:35Z</time>
      </trkpt>
      <trkpt lat="43.63191" lon="1.30447">
        <ele>143</ele>
        <time>2022-12-23T11:39:38Z</time>
      </trkpt>
      <trkpt lat="43.63193" lon="1.30461">
        <ele>144</ele>
        <time>2022-12-23T11:39:41Z</time>
      </trkpt>
      <trkpt lat="43.63196" lon="1.30476">
        <ele>144</ele>
        <time>2022-12-23T11:39:45Z</time>
      </trkpt>
      <trkpt lat="43.63197" lon="1.30488">
        <ele>143</ele>
        <time>2022-12-23T11:39:48Z</time>
      </trkpt>
      <trkpt lat="43.63197" lon="1.30501">
        <ele>143</ele>
        <time>2022-12-23T11:39:51Z</time>
      </trkpt>
      <trkpt lat="43.63197" lon="1.30516">
        <ele>143</ele>
        <time>2022-12-23T11:39:55Z</time>
      </trkpt>
      <trkpt lat="43.63197" lon="1.30532">
        <ele>144</ele>
        <time>2022-12-23T11:39:59Z</time>
      </trkpt>
      <trkpt lat="43.63199" lon="1.30547">
        <ele>143</ele>
        <time>2022-12-23T11:40:03Z</time>
      </trkpt>
      <trkpt lat="43.63199" lon="1.30559">
        <ele>143</ele>
        <time>2022-12-23T11:40:06Z</time>
      </trkpt>
      <trkpt lat="43.63201" lon="1.30573">
        <ele>143</ele>
        <time>2022-12-23T11:40:10Z</time>
      </trkpt>
      <trkpt lat="43.63202" lon="1.30588">
        <ele>144</ele>
        <time>2022-12-23T11:40:14Z</time>
      </trkpt>
      <trkpt lat="43.63205" lon="1.30602">
        <ele>143</ele>
        <time>2022-12-23T11:40:18Z</time>
      </trkpt>
      <trkpt lat="43.63205" lon="1.30617">
        <ele>143</ele>
        <time>2022-12-23T11:40:22Z</time>
      </trkpt>
      <trkpt lat="43.63205" lon="1.30633">
        <ele>143</ele>
        <time>2022-12-23T11:40:26Z</time>
      </trkpt>
      <trkpt lat="43.63205" lon="1.30648">
        <ele>143</ele>
        <time>2022-12-23T11:40:30Z</time>
      </trkpt>
      <trkpt lat="43.63205" lon="1.30663">
        <ele>143</ele>
        <time>2022-12-23T11:40:34Z</time>
      </trkpt>
      <trkpt lat="43.63206" lon="1.30678">
        <ele>143</ele>
        <time>2022-12-23T11:40:38Z</time>
      </trkpt>
      <trkpt lat="43.63212" lon="1.30688">
        <ele>143</ele>
        <time>2022-12-23T11:40:43Z</time>
      </trkpt>
      <trkpt lat="43.63223" lon="1.30692">
        <ele>143</ele>
        <time>2022-12-23T11:40:47Z</time>
      </trkpt>
      <trkpt lat="43.63231" lon="1.30703">
        <ele>142</ele>
        <time>2022-12-23T11:40:51Z</time>
      </trkpt>
      <trkpt lat="43.63233" lon="1.30718">
        <ele>141</ele>
        <time>2022-12-23T11:40:54Z</time>
      </trkpt>
      <trkpt lat="43.63233" lon="1.30722">
        <ele>141</ele>
        <time>2022-12-23T11:40:55Z</time>
      </trkpt>
      <trkpt lat="43.63235" lon="1.30734">
        <ele>141</ele>
        <time>2022-12-23T11:40:58Z</time>
      </trkpt>
      <trkpt lat="43.63238" lon="1.30747">
        <ele>142</ele>
        <time>2022-12-23T11:41:02Z</time>
      </trkpt>
      <trkpt lat="43.63244" lon="1.30759">
        <ele>143</ele>
        <time>2022-12-23T11:41:07Z</time>
      </trkpt>
      <trkpt lat="43.63252" lon="1.3077">
        <ele>143</ele>
        <time>2022-12-23T11:41:12Z</time>
      </trkpt>
      <trkpt lat="43.6326" lon="1.30781">
        <ele>144</ele>
        <time>2022-12-23T11:41:16Z</time>
      </trkpt>
      <trkpt lat="43.63268" lon="1.3077">
        <ele>145</ele>
        <time>2022-12-23T11:41:21Z</time>
      </trkpt>
      <trkpt lat="43.63273" lon="1.30759">
        <ele>145</ele>
        <time>2022-12-23T11:41:25Z</time>
      </trkpt>
      <trkpt lat="43.63278" lon="1.30745">
        <ele>144</ele>
        <time>2022-12-23T11:41:30Z</time>
      </trkpt>
      <trkpt lat="43.63281" lon="1.30733">
        <ele>144</ele>
        <time>2022-12-23T11:41:35Z</time>
      </trkpt>
      <trkpt lat="43.63282" lon="1.30719">
        <ele>144</ele>
        <time>2022-12-23T11:41:40Z</time>
      </trkpt>
      <trkpt lat="43.63282" lon="1.30703">
        <ele>144</ele>
        <time>2022-12-23T11:41:45Z</time>
      </trkpt>
      <trkpt lat="43.63278" lon="1.30689">
        <ele>144</ele>
        <time>2022-12-23T11:41:50Z</time>
      </trkpt>
      <trkpt lat="43.63274" lon="1.30676">
        <ele>145</ele>
        <time>2022-12-23T11:41:54Z</time>
      </trkpt>
      <trkpt lat="43.63273" lon="1.30662">
        <ele>145</ele>
        <time>2022-12-23T11:41:58Z</time>
      </trkpt>
      <trkpt lat="43.63271" lon="1.30648">
        <ele>145</ele>
        <time>2022-12-23T11:42:02Z</time>
      </trkpt>
      <trkpt lat="43.63272" lon="1.30632">
        <ele>145</ele>
        <time>2022-12-23T11:42:06Z</time>
      </trkpt>
      <trkpt lat="43.63273" lon="1.30619">
        <ele>146</ele>
        <time>2022-12-23T11:42:09Z</time>
      </trkpt>
      <trkpt lat="43.63275" lon="1.30606">
        <ele>146</ele>
        <time>2022-12-23T11:42:12Z</time>
      </trkpt>
      <trkpt lat="43.63277" lon="1.30593">
        <ele>145</ele>
        <time>2022-12-23T11:42:15Z</time>
      </trkpt>
      <trkpt lat="43.6328" lon="1.30581">
        <ele>145</ele>
        <time>2022-12-23T11:42:18Z</time>
      </trkpt>
      <trkpt lat="43.63283" lon="1.30566">
        <ele>146</ele>
        <time>2022-12-23T11:42:22Z</time>
      </trkpt>
      <trkpt lat="43.63287" lon="1.30552">
        <ele>146</ele>
        <time>2022-12-23T11:42:26Z</time>
      </trkpt>
      <trkpt lat="43.63291" lon="1.30538">
        <ele>146</ele>
        <time>2022-12-23T11:42:30Z</time>
      </trkpt>
      <trkpt lat="43.63295" lon="1.30525">
        <ele>147</ele>
        <time>2022-12-23T11:42:34Z</time>
      </trkpt>
      <trkpt lat="43.633" lon="1.30511">
        <ele>147</ele>
        <time>2022-12-23T11:42:38Z</time>
      </trkpt>
      <trkpt lat="43.63304" lon="1.30499">
        <ele>147</ele>
        <time>2022-12-23T11:42:42Z</time>
      </trkpt>
      <trkpt lat="43.63308" lon="1.30484">
        <ele>147</ele>
        <time>2022-12-23T11:42:46Z</time>
      </trkpt>
      <trkpt lat="43.63311" lon="1.30472">
        <ele>147</ele>
        <time>2022-12-23T11:42:50Z</time>
      </trkpt>
      <trkpt lat="43.63312" lon="1.30458">
        <ele>147</ele>
        <time>2022-12-23T11:42:54Z</time>
      </trkpt>
      <trkpt lat="43.63314" lon="1.30445">
        <ele>147</ele>
        <time>2022-12-23T11:42:57Z</time>
      </trkpt>
      <trkpt lat="43.63314" lon="1.30431">
        <ele>147</ele>
        <time>2022-12-23T11:43:01Z</time>
      </trkpt>
      <trkpt lat="43.63314" lon="1.30417">
        <ele>146</ele>
        <time>2022-12-23T11:43:04Z</time>
      </trkpt>
      <trkpt lat="43.63314" lon="1.30405">
        <ele>147</ele>
        <time>2022-12-23T11:43:08Z</time>
      </trkpt>
      <trkpt lat="43.63315" lon="1.30391">
        <ele>147</ele>
        <time>2022-12-23T11:43:12Z</time>
      </trkpt>
      <trkpt lat="43.63315" lon="1.30378">
        <ele>147</ele>
        <time>2022-12-23T11:43:15Z</time>
      </trkpt>
      <trkpt lat="43.63314" lon="1.30365">
        <ele>147</ele>
        <time>2022-12-23T11:43:19Z</time>
      </trkpt>
      <trkpt lat="43.63312" lon="1.30353">
        <ele>147</ele>
        <time>2022-12-23T11:43:23Z</time>
      </trkpt>
      <trkpt lat="43.63309" lon="1.3034">
        <ele>147</ele>
        <time>2022-12-23T11:43:27Z</time>
      </trkpt>
      <trkpt lat="43.63305" lon="1.30326">
        <ele>148</ele>
        <time>2022-12-23T11:43:31Z</time>
      </trkpt>
      <trkpt lat="43.633" lon="1.30314">
        <ele>148</ele>
        <time>2022-12-23T11:43:35Z</time>
      </trkpt>
      <trkpt lat="43.63294" lon="1.30303">
        <ele>148</ele>
        <time>2022-12-23T11:43:39Z</time>
      </trkpt>
      <trkpt lat="43.63289" lon="1.30294">
        <ele>147</ele>
        <time>2022-12-23T11:43:42Z</time>
      </trkpt>
      <trkpt lat="43.63287" lon="1.30292">
        <ele>147</ele>
        <time>2022-12-23T11:43:43Z</time>
      </trkpt>
      <trkpt lat="43.63286" lon="1.30289">
        <ele>147</ele>
        <time>2022-12-23T11:43:44Z</time>
      </trkpt>
      <trkpt lat="43.6328" lon="1.30278">
        <ele>147</ele>
        <time>2022-12-23T11:43:48Z</time>
      </trkpt>
      <trkpt lat="43.63278" lon="1.30275">
        <ele>147</ele>
        <time>2022-12-23T11:43:49Z</time>
      </trkpt>
      <trkpt lat="43.63277" lon="1.30271">
        <ele>147</ele>
        <time>2022-12-23T11:43:50Z</time>
      </trkpt>
      <trkpt lat="43.63273" lon="1.30261">
        <ele>147</ele>
        <time>2022-12-23T11:43:53Z</time>
      </trkpt>
      <trkpt lat="43.63266" lon="1.3025">
        <ele>147</ele>
        <time>2022-12-23T11:43:57Z</time>
      </trkpt>
      <trkpt lat="43.63259" lon="1.30237">
        <ele>147</ele>
        <time>2022-12-23T11:44:01Z</time>
      </trkpt>
      <trkpt lat="43.63251" lon="1.30227">
        <ele>147</ele>
        <time>2022-12-23T11:44:05Z</time>
      </trkpt>
      <trkpt lat="43.63242" lon="1.30219">
        <ele>147</ele>
        <time>2022-12-23T11:44:09Z</time>
      </trkpt>
      <trkpt lat="43.63232" lon="1.30217">
        <ele>147</ele>
        <time>2022-12-23T11:44:13Z</time>
      </trkpt>
      <trkpt lat="43.63222" lon="1.30212">
        <ele>147</ele>
        <time>2022-12-23T11:44:17Z</time>
      </trkpt>
      <trkpt lat="43.63211" lon="1.30206">
        <ele>147</ele>
        <time>2022-12-23T11:44:21Z</time>
      </trkpt>
      <trkpt lat="43.63202" lon="1.30201">
        <ele>147</ele>
        <time>2022-12-23T11:44:24Z</time>
      </trkpt>
      <trkpt lat="43.63193" lon="1.30192">
        <ele>147</ele>
        <time>2022-12-23T11:44:28Z</time>
      </trkpt>
      <trkpt lat="43.63184" lon="1.30184">
        <ele>147</ele>
        <time>2022-12-23T11:44:32Z</time>
      </trkpt>
      <trkpt lat="43.63175" lon="1.30176">
        <ele>148</ele>
        <time>2022-12-23T11:44:36Z</time>
      </trkpt>
      <trkpt lat="43.63167" lon="1.30171">
        <ele>148</ele>
        <time>2022-12-23T11:44:39Z</time>
      </trkpt>
      <trkpt lat="43.63158" lon="1.30163">
        <ele>148</ele>
        <time>2022-12-23T11:44:43Z</time>
      </trkpt>
      <trkpt lat="43.6315" lon="1.30153">
        <ele>149</ele>
        <time>2022-12-23T11:44:47Z</time>
      </trkpt>
      <trkpt lat="43.63144" lon="1.30144">
        <ele>148</ele>
        <time>2022-12-23T11:44:50Z</time>
      </trkpt>
      <trkpt lat="43.63138" lon="1.30135">
        <ele>148</ele>
        <time>2022-12-23T11:44:53Z</time>
      </trkpt>
      <trkpt lat="43.63128" lon="1.30127">
        <ele>147</ele>
        <time>2022-12-23T11:44:57Z</time>
      </trkpt>
      <trkpt lat="43.63126" lon="1.30125">
        <ele>147</ele>
        <time>2022-12-23T11:44:58Z</time>
      </trkpt>
      <trkpt lat="43.63124" lon="1.30122">
        <ele>147</ele>
        <time>2022-12-23T11:44:59Z</time>
      </trkpt>
      <trkpt lat="43.63122" lon="1.3012">
        <ele>148</ele>
        <time>2022-12-23T11:45:00Z</time>
      </trkpt>
      <trkpt lat="43.63119" lon="1.30118">
        <ele>148</ele>
        <time>2022-12-23T11:45:01Z</time>
      </trkpt>
      <trkpt lat="43.63116" lon="1.30117">
        <ele>148</ele>
        <time>2022-12-23T11:45:02Z</time>
      </trkpt>
      <trkpt lat="43.63113" lon="1.30116">
        <ele>148</ele>
        <time>2022-12-23T11:45:03Z</time>
      </trkpt>
      <trkpt lat="43.6311" lon="1.30114">
        <ele>148</ele>
        <time>2022-12-23T11:45:04Z</time>
      </trkpt>
      <trkpt lat="43.63108" lon="1.30112">
        <ele>148</ele>
        <time>2022-12-23T11:45:05Z</time>
      </trkpt>
      <trkpt lat="43.63105" lon="1.3011">
        <ele>148</ele>
        <time>2022-12-23T11:45:06Z</time>
      </trkpt>
      <trkpt lat="43.63103" lon="1.30107">
        <ele>147</ele>
        <time>2022-12-23T11:45:07Z</time>
      </trkpt>
      <trkpt lat="43.631" lon="1.30105">
        <ele>147</ele>
        <time>2022-12-23T11:45:08Z</time>
      </trkpt>
      <trkpt lat="43.63098" lon="1.30102">
        <ele>147</ele>
        <time>2022-12-23T11:45:09Z</time>
      </trkpt>
      <trkpt lat="43.63095" lon="1.301">
        <ele>148</ele>
        <time>2022-12-23T11:45:10Z</time>
      </trkpt>
      <trkpt lat="43.63093" lon="1.30097">
        <ele>148</ele>
        <time>2022-12-23T11:45:11Z</time>
      </trkpt>
      <trkpt lat="43.6309" lon="1.30095">
        <ele>147</ele>
        <time>2022-12-23T11:45:12Z</time>
      </trkpt>
      <trkpt lat="43.63088" lon="1.30093">
        <ele>147</ele>
        <time>2022-12-23T11:45:13Z</time>
      </trkpt>
      <trkpt lat="43.63086" lon="1.30091">
        <ele>147</ele>
        <time>2022-12-23T11:45:14Z</time>
      </trkpt>
      <trkpt lat="43.63083" lon="1.30088">
        <ele>147</ele>
        <time>2022-12-23T11:45:15Z</time>
      </trkpt>
      <trkpt lat="43.63081" lon="1.30086">
        <ele>148</ele>
        <time>2022-12-23T11:45:16Z</time>
      </trkpt>
      <trkpt lat="43.63079" lon="1.30083">
        <ele>148</ele>
        <time>2022-12-23T11:45:17Z</time>
      </trkpt>
      <trkpt lat="43.63077" lon="1.30081">
        <ele>147</ele>
        <time>2022-12-23T11:45:18Z</time>
      </trkpt>
      <trkpt lat="43.63075" lon="1.30078">
        <ele>147</ele>
        <time>2022-12-23T11:45:19Z</time>
      </trkpt>
      <trkpt lat="43.63072" lon="1.30075">
        <ele>147</ele>
        <time>2022-12-23T11:45:20Z</time>
      </trkpt>
      <trkpt lat="43.6307" lon="1.30073">
        <ele>148</ele>
        <time>2022-12-23T11:45:21Z</time>
      </trkpt>
      <trkpt lat="43.63068" lon="1.3007">
        <ele>148</ele>
        <time>2022-12-23T11:45:22Z</time>
      </trkpt>
      <trkpt lat="43.63066" lon="1.30068">
        <ele>147</ele>
        <time>2022-12-23T11:45:23Z</time>
      </trkpt>
      <trkpt lat="43.63063" lon="1.30065">
        <ele>147</ele>
        <time>2022-12-23T11:45:24Z</time>
      </trkpt>
      <trkpt lat="43.63061" lon="1.30062">
        <ele>147</ele>
        <time>2022-12-23T11:45:25Z</time>
      </trkpt>
      <trkpt lat="43.63059" lon="1.3006">
        <ele>147</ele>
        <time>2022-12-23T11:45:26Z</time>
      </trkpt>
      <trkpt lat="43.63057" lon="1.30058">
        <ele>147</ele>
        <time>2022-12-23T11:45:27Z</time>
      </trkpt>
      <trkpt lat="43.63054" lon="1.30055">
        <ele>147</ele>
        <time>2022-12-23T11:45:28Z</time>
      </trkpt>
      <trkpt lat="43.63052" lon="1.30053">
        <ele>147</ele>
        <time>2022-12-23T11:45:29Z</time>
      </trkpt>
      <trkpt lat="43.6305" lon="1.30051">
        <ele>147</ele>
        <time>2022-12-23T11:45:30Z</time>
      </trkpt>
      <trkpt lat="43.63047" lon="1.30049">
        <ele>147</ele>
        <time>2022-12-23T11:45:31Z</time>
      </trkpt>
      <trkpt lat="43.63045" lon="1.30047">
        <ele>147</ele>
        <time>2022-12-23T11:45:32Z</time>
      </trkpt>
      <trkpt lat="43.63043" lon="1.30045">
        <ele>147</ele>
        <time>2022-12-23T11:45:33Z</time>
      </trkpt>
      <trkpt lat="43.6304" lon="1.30043">
        <ele>147</ele>
        <time>2022-12-23T11:45:34Z</time>
      </trkpt>
      <trkpt lat="43.63038" lon="1.30041">
        <ele>147</ele>
        <time>2022-12-23T11:45:35Z</time>
      </trkpt>
      <trkpt lat="43.63035" lon="1.30041">
        <ele>147</ele>
        <time>2022-12-23T11:45:36Z</time>
      </trkpt>
      <trkpt lat="43.63032" lon="1.3004">
        <ele>147</ele>
        <time>2022-12-23T11:45:37Z</time>
      </trkpt>
      <trkpt lat="43.6303" lon="1.3004">
        <ele>147</ele>
        <time>2022-12-23T11:45:38Z</time>
      </trkpt>
      <trkpt lat="43.63027" lon="1.3004">
        <ele>147</ele>
        <time>2022-12-23T11:45:39Z</time>
      </trkpt>
      <trkpt lat="43.63024" lon="1.3004">
        <ele>147</ele>
        <time>2022-12-23T11:45:40Z</time>
      </trkpt>
      <trkpt lat="43.63022" lon="1.3004">
        <ele>147</ele>
        <time>2022-12-23T11:45:41Z</time>
      </trkpt>
      <trkpt lat="43.63019" lon="1.3004">
        <ele>147</ele>
        <time>2022-12-23T11:45:42Z</time>
      </trkpt>
      <trkpt lat="43.63016" lon="1.30041">
        <ele>147</ele>
        <time>2022-12-23T11:45:43Z</time>
      </trkpt>
      <trkpt lat="43.63013" lon="1.30041">
        <ele>147</ele>
        <time>2022-12-23T11:45:44Z</time>
      </trkpt>
      <trkpt lat="43.63011" lon="1.30042">
        <ele>147</ele>
        <time>2022-12-23T11:45:45Z</time>
      </trkpt>
      <trkpt lat="43.63008" lon="1.30043">
        <ele>147</ele>
        <time>2022-12-23T11:45:46Z</time>
      </trkpt>
      <trkpt lat="43.63005" lon="1.30044">
        <ele>147</ele>
        <time>2022-12-23T11:45:47Z</time>
      </trkpt>
      <trkpt lat="43.63003" lon="1.30045">
        <ele>147</ele>
        <time>2022-12-23T11:45:48Z</time>
      </trkpt>
      <trkpt lat="43.63" lon="1.30046">
        <ele>147</ele>
        <time>2022-12-23T11:45:49Z</time>
      </trkpt>
      <trkpt lat="43.62997" lon="1.30047">
        <ele>147</ele>
        <time>2022-12-23T11:45:50Z</time>
      </trkpt>
      <trkpt lat="43.62995" lon="1.30047">
        <ele>147</ele>
        <time>2022-12-23T11:45:51Z</time>
      </trkpt>
      <trkpt lat="43.62992" lon="1.30048">
        <ele>147</ele>
        <time>2022-12-23T11:45:52Z</time>
      </trkpt>
      <trkpt lat="43.6299" lon="1.30049">
        <ele>147</ele>
        <time>2022-12-23T11:45:53Z</time>
      </trkpt>
      <trkpt lat="43.62987" lon="1.3005">
        <ele>148</ele>
        <time>2022-12-23T11:45:54Z</time>
      </trkpt>
      <trkpt lat="43.62985" lon="1.30051">
        <ele>148</ele>
        <time>2022-12-23T11:45:55Z</time>
      </trkpt>
      <trkpt lat="43.62982" lon="1.30052">
        <ele>147</ele>
        <time>2022-12-23T11:45:56Z</time>
      </trkpt>
      <trkpt lat="43.6298" lon="1.30052">
        <ele>147</ele>
        <time>2022-12-23T11:45:57Z</time>
      </trkpt>
      <trkpt lat="43.62977" lon="1.30053">
        <ele>147</ele>
        <time>2022-12-23T11:45:58Z</time>
      </trkpt>
      <trkpt lat="43.62975" lon="1.30054">
        <ele>147</ele>
        <time>2022-12-23T11:45:59Z</time>
      </trkpt>
      <trkpt lat="43.62972" lon="1.30055">
        <ele>147</ele>
        <time>2022-12-23T11:46:00Z</time>
      </trkpt>
      <trkpt lat="43.62969" lon="1.30055">
        <ele>147</ele>
        <time>2022-12-23T11:46:01Z</time>
      </trkpt>
      <trkpt lat="43.62967" lon="1.30056">
        <ele>147</ele>
        <time>2022-12-23T11:46:02Z</time>
      </trkpt>
      <trkpt lat="43.62964" lon="1.30057">
        <ele>147</ele>
        <time>2022-12-23T11:46:03Z</time>
      </trkpt>
      <trkpt lat="43.62961" lon="1.30058">
        <ele>148</ele>
        <time>2022-12-23T11:46:04Z</time>
      </trkpt>
      <trkpt lat="43.62958" lon="1.30058">
        <ele>148</ele>
        <time>2022-12-23T11:46:05Z</time>
      </trkpt>
      <trkpt lat="43.62955" lon="1.30059">
        <ele>148</ele>
        <time>2022-12-23T11:46:06Z</time>
      </trkpt>
      <trkpt lat="43.62953" lon="1.3006">
        <ele>147</ele>
        <time>2022-12-23T11:46:07Z</time>
      </trkpt>
      <trkpt lat="43.6295" lon="1.30061">
        <ele>147</ele>
        <time>2022-12-23T11:46:08Z</time>
      </trkpt>
      <trkpt lat="43.62947" lon="1.30062">
        <ele>147</ele>
        <time>2022-12-23T11:46:09Z</time>
      </trkpt>
      <trkpt lat="43.62945" lon="1.30063">
        <ele>148</ele>
        <time>2022-12-23T11:46:10Z</time>
      </trkpt>
      <trkpt lat="43.62942" lon="1.30065">
        <ele>148</ele>
        <time>2022-12-23T11:46:11Z</time>
      </trkpt>
      <trkpt lat="43.6294" lon="1.30066">
        <ele>147</ele>
        <time>2022-12-23T11:46:12Z</time>
      </trkpt>
      <trkpt lat="43.62937" lon="1.30067">
        <ele>147</ele>
        <time>2022-12-23T11:46:13Z</time>
      </trkpt>
      <trkpt lat="43.62934" lon="1.30069">
        <ele>147</ele>
        <time>2022-12-23T11:46:14Z</time>
      </trkpt>
      <trkpt lat="43.62931" lon="1.30069">
        <ele>148</ele>
        <time>2022-12-23T11:46:15Z</time>
      </trkpt>
      <trkpt lat="43.62929" lon="1.3007">
        <ele>148</ele>
        <time>2022-12-23T11:46:16Z</time>
      </trkpt>
      <trkpt lat="43.62926" lon="1.30071">
        <ele>148</ele>
        <time>2022-12-23T11:46:17Z</time>
      </trkpt>
      <trkpt lat="43.62923" lon="1.30071">
        <ele>148</ele>
        <time>2022-12-23T11:46:18Z</time>
      </trkpt>
      <trkpt lat="43.6292" lon="1.30071">
        <ele>147</ele>
        <time>2022-12-23T11:46:19Z</time>
      </trkpt>
      <trkpt lat="43.62918" lon="1.30071">
        <ele>147</ele>
        <time>2022-12-23T11:46:20Z</time>
      </trkpt>
      <trkpt lat="43.62914" lon="1.30071">
        <ele>147</ele>
        <time>2022-12-23T11:46:21Z</time>
      </trkpt>
      <trkpt lat="43.62912" lon="1.3007">
        <ele>147</ele>
        <time>2022-12-23T11:46:22Z</time>
      </trkpt>
      <trkpt lat="43.62909" lon="1.30069">
        <ele>147</ele>
        <time>2022-12-23T11:46:23Z</time>
      </trkpt>
      <trkpt lat="43.62906" lon="1.30068">
        <ele>147</ele>
        <time>2022-12-23T11:46:24Z</time>
      </trkpt>
      <trkpt lat="43.62904" lon="1.30066">
        <ele>147</ele>
        <time>2022-12-23T11:46:25Z</time>
      </trkpt>
      <trkpt lat="43.62901" lon="1.30065">
        <ele>147</ele>
        <time>2022-12-23T11:46:26Z</time>
      </trkpt>
      <trkpt lat="43.62898" lon="1.30064">
        <ele>147</ele>
        <time>2022-12-23T11:46:27Z</time>
      </trkpt>
      <trkpt lat="43.62895" lon="1.30062">
        <ele>147</ele>
        <time>2022-12-23T11:46:28Z</time>
      </trkpt>
      <trkpt lat="43.62892" lon="1.30061">
        <ele>147</ele>
        <time>2022-12-23T11:46:29Z</time>
      </trkpt>
      <trkpt lat="43.62889" lon="1.30059">
        <ele>147</ele>
        <time>2022-12-23T11:46:30Z</time>
      </trkpt>
      <trkpt lat="43.62886" lon="1.30058">
        <ele>147</ele>
        <time>2022-12-23T11:46:31Z</time>
      </trkpt>
      <trkpt lat="43.62884" lon="1.30056">
        <ele>147</ele>
        <time>2022-12-23T11:46:32Z</time>
      </trkpt>
      <trkpt lat="43.62881" lon="1.30055">
        <ele>148</ele>
        <time>2022-12-23T11:46:33Z</time>
      </trkpt>
      <trkpt lat="43.62878" lon="1.30054">
        <ele>148</ele>
        <time>2022-12-23T11:46:34Z</time>
      </trkpt>
      <trkpt lat="43.62876" lon="1.30052">
        <ele>147</ele>
        <time>2022-12-23T11:46:35Z</time>
      </trkpt>
      <trkpt lat="43.62873" lon="1.30051">
        <ele>147</ele>
        <time>2022-12-23T11:46:36Z</time>
      </trkpt>
      <trkpt lat="43.6287" lon="1.3005">
        <ele>147</ele>
        <time>2022-12-23T11:46:37Z</time>
      </trkpt>
      <trkpt lat="43.62867" lon="1.30049">
        <ele>147</ele>
        <time>2022-12-23T11:46:38Z</time>
      </trkpt>
      <trkpt lat="43.62865" lon="1.30047">
        <ele>147</ele>
        <time>2022-12-23T11:46:39Z</time>
      </trkpt>
      <trkpt lat="43.62862" lon="1.30045">
        <ele>147</ele>
        <time>2022-12-23T11:46:40Z</time>
      </trkpt>
      <trkpt lat="43.62859" lon="1.30044">
        <ele>147</ele>
        <time>2022-12-23T11:46:41Z</time>
      </trkpt>
      <trkpt lat="43.62857" lon="1.30043">
        <ele>147</ele>
        <time>2022-12-23T11:46:42Z</time>
      </trkpt>
      <trkpt lat="43.62851" lon="1.3004">
        <ele>147</ele>
        <time>2022-12-23T11:46:44Z</time>
      </trkpt>
      <trkpt lat="43.62849" lon="1.30038">
        <ele>147</ele>
        <time>2022-12-23T11:46:45Z</time>
      </trkpt>
      <trkpt lat="43.62846" lon="1.30037">
        <ele>147</ele>
        <time>2022-12-23T11:46:46Z</time>
      </trkpt>
      <trkpt lat="43.62843" lon="1.30036">
        <ele>147</ele>
        <time>2022-12-23T11:46:47Z</time>
      </trkpt>
      <trkpt lat="43.6284" lon="1.30035">
        <ele>147</ele>
        <time>2022-12-23T11:46:48Z</time>
      </trkpt>
      <trkpt lat="43.62837" lon="1.30034">
        <ele>147</ele>
        <time>2022-12-23T11:46:49Z</time>
      </trkpt>
      <trkpt lat="43.62834" lon="1.30033">
        <ele>147</ele>
        <time>2022-12-23T11:46:50Z</time>
      </trkpt>
      <trkpt lat="43.62831" lon="1.30031">
        <ele>147</ele>
        <time>2022-12-23T11:46:51Z</time>
      </trkpt>
      <trkpt lat="43.62828" lon="1.3003">
        <ele>147</ele>
        <time>2022-12-23T11:46:52Z</time>
      </trkpt>
      <trkpt lat="43.62825" lon="1.3003">
        <ele>147</ele>
        <time>2022-12-23T11:46:53Z</time>
      </trkpt>
      <trkpt lat="43.62823" lon="1.3003">
        <ele>147</ele>
        <time>2022-12-23T11:46:54Z</time>
      </trkpt>
      <trkpt lat="43.6282" lon="1.30031">
        <ele>147</ele>
        <time>2022-12-23T11:46:55Z</time>
      </trkpt>
      <trkpt lat="43.62818" lon="1.30033">
        <ele>148</ele>
        <time>2022-12-23T11:46:56Z</time>
      </trkpt>
      <trkpt lat="43.62816" lon="1.30036">
        <ele>148</ele>
        <time>2022-12-23T11:46:57Z</time>
      </trkpt>
      <trkpt lat="43.62814" lon="1.3004">
        <ele>148</ele>
        <time>2022-12-23T11:46:58Z</time>
      </trkpt>
      <trkpt lat="43.62812" lon="1.30043">
        <ele>148</ele>
        <time>2022-12-23T11:46:59Z</time>
      </trkpt>
      <trkpt lat="43.62811" lon="1.30046">
        <ele>148</ele>
        <time>2022-12-23T11:47:00Z</time>
      </trkpt>
      <trkpt lat="43.6281" lon="1.3005">
        <ele>148</ele>
        <time>2022-12-23T11:47:01Z</time>
      </trkpt>
      <trkpt lat="43.62809" lon="1.30054">
        <ele>148</ele>
        <time>2022-12-23T11:47:02Z</time>
      </trkpt>
      <trkpt lat="43.62808" lon="1.30057">
        <ele>148</ele>
        <time>2022-12-23T11:47:03Z</time>
      </trkpt>
      <trkpt lat="43.62807" lon="1.3006">
        <ele>148</ele>
        <time>2022-12-23T11:47:04Z</time>
      </trkpt>
      <trkpt lat="43.62806" lon="1.30064">
        <ele>147</ele>
        <time>2022-12-23T11:47:05Z</time>
      </trkpt>
      <trkpt lat="43.62805" lon="1.30067">
        <ele>147</ele>
        <time>2022-12-23T11:47:06Z</time>
      </trkpt>
      <trkpt lat="43.62804" lon="1.30071">
        <ele>147</ele>
        <time>2022-12-23T11:47:07Z</time>
      </trkpt>
      <trkpt lat="43.62803" lon="1.30074">
        <ele>147</ele>
        <time>2022-12-23T11:47:08Z</time>
      </trkpt>
      <trkpt lat="43.62802" lon="1.30077">
        <ele>147</ele>
        <time>2022-12-23T11:47:09Z</time>
      </trkpt>
      <trkpt lat="43.62801" lon="1.3008">
        <ele>147</ele>
        <time>2022-12-23T11:47:10Z</time>
      </trkpt>
      <trkpt lat="43.628" lon="1.30083">
        <ele>147</ele>
        <time>2022-12-23T11:47:11Z</time>
      </trkpt>
      <trkpt lat="43.62799" lon="1.30087">
        <ele>147</ele>
        <time>2022-12-23T11:47:12Z</time>
      </trkpt>
      <trkpt lat="43.62798" lon="1.30091">
        <ele>147</ele>
        <time>2022-12-23T11:47:13Z</time>
      </trkpt>
      <trkpt lat="43.62796" lon="1.30094">
        <ele>147</ele>
        <time>2022-12-23T11:47:14Z</time>
      </trkpt>
      <trkpt lat="43.62795" lon="1.30098">
        <ele>147</ele>
        <time>2022-12-23T11:47:15Z</time>
      </trkpt>
      <trkpt lat="43.62794" lon="1.30101">
        <ele>148</ele>
        <time>2022-12-23T11:47:16Z</time>
      </trkpt>
      <trkpt lat="43.62792" lon="1.30105">
        <ele>148</ele>
        <time>2022-12-23T11:47:17Z</time>
      </trkpt>
      <trkpt lat="43.62791" lon="1.30108">
        <ele>148</ele>
        <time>2022-12-23T11:47:18Z</time>
      </trkpt>
      <trkpt lat="43.6279" lon="1.30111">
        <ele>148</ele>
        <time>2022-12-23T11:47:19Z</time>
      </trkpt>
      <trkpt lat="43.62788" lon="1.30114">
        <ele>147</ele>
        <time>2022-12-23T11:47:20Z</time>
      </trkpt>
      <trkpt lat="43.62787" lon="1.30117">
        <ele>147</ele>
        <time>2022-12-23T11:47:21Z</time>
      </trkpt>
      <trkpt lat="43.62786" lon="1.30121">
        <ele>147</ele>
        <time>2022-12-23T11:47:22Z</time>
      </trkpt>
      <trkpt lat="43.62785" lon="1.30124">
        <ele>147</ele>
        <time>2022-12-23T11:47:23Z</time>
      </trkpt>
      <trkpt lat="43.62783" lon="1.30128">
        <ele>147</ele>
        <time>2022-12-23T11:47:24Z</time>
      </trkpt>
      <trkpt lat="43.62782" lon="1.30131">
        <ele>147</ele>
        <time>2022-12-23T11:47:25Z</time>
      </trkpt>
      <trkpt lat="43.6278" lon="1.30134">
        <ele>147</ele>
        <time>2022-12-23T11:47:26Z</time>
      </trkpt>
      <trkpt lat="43.62779" lon="1.30138">
        <ele>147</ele>
        <time>2022-12-23T11:47:27Z</time>
      </trkpt>
      <trkpt lat="43.62777" lon="1.3014">
        <ele>147</ele>
        <time>2022-12-23T11:47:28Z</time>
      </trkpt>
      <trkpt lat="43.62775" lon="1.30143">
        <ele>147</ele>
        <time>2022-12-23T11:47:29Z</time>
      </trkpt>
      <trkpt lat="43.62773" lon="1.30146">
        <ele>147</ele>
        <time>2022-12-23T11:47:30Z</time>
      </trkpt>
      <trkpt lat="43.62772" lon="1.30149">
        <ele>147</ele>
        <time>2022-12-23T11:47:31Z</time>
      </trkpt>
      <trkpt lat="43.6277" lon="1.30152">
        <ele>147</ele>
        <time>2022-12-23T11:47:32Z</time>
      </trkpt>
      <trkpt lat="43.62769" lon="1.30155">
        <ele>148</ele>
        <time>2022-12-23T11:47:33Z</time>
      </trkpt>
      <trkpt lat="43.62768" lon="1.30159">
        <ele>149</ele>
        <time>2022-12-23T11:47:34Z</time>
      </trkpt>
      <trkpt lat="43.62767" lon="1.30161">
        <ele>149</ele>
        <time>2022-12-23T11:47:35Z</time>
      </trkpt>
      <trkpt lat="43.62766" lon="1.30164">
        <ele>149</ele>
        <time>2022-12-23T11:47:36Z</time>
      </trkpt>
      <trkpt lat="43.62764" lon="1.30166">
        <ele>149</ele>
        <time>2022-12-23T11:47:37Z</time>
      </trkpt>
      <trkpt lat="43.62763" lon="1.30168">
        <ele>149</ele>
        <time>2022-12-23T11:47:38Z</time>
      </trkpt>
      <trkpt lat="43.62761" lon="1.3017">
        <ele>149</ele>
        <time>2022-12-23T11:47:39Z</time>
      </trkpt>
      <trkpt lat="43.62759" lon="1.30173">
        <ele>149</ele>
        <time>2022-12-23T11:47:40Z</time>
      </trkpt>
      <trkpt lat="43.62757" lon="1.30175">
        <ele>150</ele>
        <time>2022-12-23T11:47:41Z</time>
      </trkpt>
      <trkpt lat="43.62755" lon="1.30177">
        <ele>150</ele>
        <time>2022-12-23T11:47:42Z</time>
      </trkpt>
      <trkpt lat="43.62753" lon="1.3018">
        <ele>150</ele>
        <time>2022-12-23T11:47:43Z</time>
      </trkpt>
      <trkpt lat="43.62751" lon="1.30183">
        <ele>149</ele>
        <time>2022-12-23T11:47:44Z</time>
      </trkpt>
      <trkpt lat="43.62749" lon="1.30187">
        <ele>148</ele>
        <time>2022-12-23T11:47:45Z</time>
      </trkpt>
      <trkpt lat="43.62747" lon="1.3019">
        <ele>148</ele>
        <time>2022-12-23T11:47:46Z</time>
      </trkpt>
      <trkpt lat="43.62746" lon="1.30194">
        <ele>148</ele>
        <time>2022-12-23T11:47:47Z</time>
      </trkpt>
      <trkpt lat="43.62744" lon="1.30198">
        <ele>148</ele>
        <time>2022-12-23T11:47:48Z</time>
      </trkpt>
      <trkpt lat="43.62743" lon="1.302">
        <ele>147</ele>
        <time>2022-12-23T11:47:49Z</time>
      </trkpt>
      <trkpt lat="43.62742" lon="1.30203">
        <ele>147</ele>
        <time>2022-12-23T11:47:50Z</time>
      </trkpt>
      <trkpt lat="43.6274" lon="1.30206">
        <ele>148</ele>
        <time>2022-12-23T11:47:52Z</time>
      </trkpt>
      <trkpt lat="43.62738" lon="1.3021">
        <ele>148</ele>
        <time>2022-12-23T11:47:54Z</time>
      </trkpt>
      <trkpt lat="43.62737" lon="1.30212">
        <ele>148</ele>
        <time>2022-12-23T11:47:55Z</time>
      </trkpt>
      <trkpt lat="43.62736" lon="1.30215">
        <ele>148</ele>
        <time>2022-12-23T11:47:56Z</time>
      </trkpt>
      <trkpt lat="43.62734" lon="1.30218">
        <ele>148</ele>
        <time>2022-12-23T11:47:57Z</time>
      </trkpt>
      <trkpt lat="43.62732" lon="1.30221">
        <ele>149</ele>
        <time>2022-12-23T11:47:58Z</time>
      </trkpt>
      <trkpt lat="43.62731" lon="1.30224">
        <ele>149</ele>
        <time>2022-12-23T11:47:59Z</time>
      </trkpt>
      <trkpt lat="43.62729" lon="1.30227">
        <ele>149</ele>
        <time>2022-12-23T11:48:00Z</time>
      </trkpt>
      <trkpt lat="43.62727" lon="1.30229">
        <ele>149</ele>
        <time>2022-12-23T11:48:01Z</time>
      </trkpt>
      <trkpt lat="43.62725" lon="1.30232">
        <ele>149</ele>
        <time>2022-12-23T11:48:02Z</time>
      </trkpt>
      <trkpt lat="43.62722" lon="1.30234">
        <ele>150</ele>
        <time>2022-12-23T11:48:03Z</time>
      </trkpt>
      <trkpt lat="43.6272" lon="1.30236">
        <ele>150</ele>
        <time>2022-12-23T11:48:04Z</time>
      </trkpt>
      <trkpt lat="43.62718" lon="1.30239">
        <ele>150</ele>
        <time>2022-12-23T11:48:05Z</time>
      </trkpt>
      <trkpt lat="43.62715" lon="1.30242">
        <ele>150</ele>
        <time>2022-12-23T11:48:06Z</time>
      </trkpt>
      <trkpt lat="43.62713" lon="1.30246">
        <ele>150</ele>
        <time>2022-12-23T11:48:07Z</time>
      </trkpt>
      <trkpt lat="43.62711" lon="1.30249">
        <ele>150</ele>
        <time>2022-12-23T11:48:08Z</time>
      </trkpt>
      <trkpt lat="43.62709" lon="1.30252">
        <ele>150</ele>
        <time>2022-12-23T11:48:09Z</time>
      </trkpt>
      <trkpt lat="43.62707" lon="1.30255">
        <ele>151</ele>
        <time>2022-12-23T11:48:10Z</time>
      </trkpt>
      <trkpt lat="43.62705" lon="1.30257">
        <ele>151</ele>
        <time>2022-12-23T11:48:11Z</time>
      </trkpt>
      <trkpt lat="43.62703" lon="1.30259">
        <ele>152</ele>
        <time>2022-12-23T11:48:12Z</time>
      </trkpt>
      <trkpt lat="43.627" lon="1.30263">
        <ele>153</ele>
        <time>2022-12-23T11:48:14Z</time>
      </trkpt>
      <trkpt lat="43.62698" lon="1.30266">
        <ele>153</ele>
        <time>2022-12-23T11:48:15Z</time>
      </trkpt>
      <trkpt lat="43.62696" lon="1.30268">
        <ele>153</ele>
        <time>2022-12-23T11:48:16Z</time>
      </trkpt>
      <trkpt lat="43.62694" lon="1.3027">
        <ele>153</ele>
        <time>2022-12-23T11:48:17Z</time>
      </trkpt>
      <trkpt lat="43.62693" lon="1.30271">
        <ele>153</ele>
        <time>2022-12-23T11:48:18Z</time>
      </trkpt>
      <trkpt lat="43.6269" lon="1.30274">
        <ele>153</ele>
        <time>2022-12-23T11:48:20Z</time>
      </trkpt>
      <trkpt lat="43.62688" lon="1.30277">
        <ele>153</ele>
        <time>2022-12-23T11:48:22Z</time>
      </trkpt>
      <trkpt lat="43.62686" lon="1.30278">
        <ele>153</ele>
        <time>2022-12-23T11:48:23Z</time>
      </trkpt>
      <trkpt lat="43.62683" lon="1.30281">
        <ele>153</ele>
        <time>2022-12-23T11:48:25Z</time>
      </trkpt>
      <trkpt lat="43.62681" lon="1.30284">
        <ele>153</ele>
        <time>2022-12-23T11:48:27Z</time>
      </trkpt>
      <trkpt lat="43.62679" lon="1.30286">
        <ele>153</ele>
        <time>2022-12-23T11:48:29Z</time>
      </trkpt>
      <trkpt lat="43.62676" lon="1.30289">
        <ele>153</ele>
        <time>2022-12-23T11:48:31Z</time>
      </trkpt>
      <trkpt lat="43.62675" lon="1.30292">
        <ele>153</ele>
        <time>2022-12-23T11:48:33Z</time>
      </trkpt>
      <trkpt lat="43.62672" lon="1.30295">
        <ele>153</ele>
        <time>2022-12-23T11:48:35Z</time>
      </trkpt>
      <trkpt lat="43.62671" lon="1.30296">
        <ele>153</ele>
        <time>2022-12-23T11:48:36Z</time>
      </trkpt>
      <trkpt lat="43.62668" lon="1.30299">
        <ele>154</ele>
        <time>2022-12-23T11:48:38Z</time>
      </trkpt>
      <trkpt lat="43.62666" lon="1.30302">
        <ele>154</ele>
        <time>2022-12-23T11:48:40Z</time>
      </trkpt>
      <trkpt lat="43.62664" lon="1.30303">
        <ele>154</ele>
        <time>2022-12-23T11:48:41Z</time>
      </trkpt>
      <trkpt lat="43.62663" lon="1.30305">
        <ele>154</ele>
        <time>2022-12-23T11:48:42Z</time>
      </trkpt>
      <trkpt lat="43.6266" lon="1.30307">
        <ele>154</ele>
        <time>2022-12-23T11:48:44Z</time>
      </trkpt>
      <trkpt lat="43.62658" lon="1.3031">
        <ele>155</ele>
        <time>2022-12-23T11:48:46Z</time>
      </trkpt>
      <trkpt lat="43.62655" lon="1.30313">
        <ele>155</ele>
        <time>2022-12-23T11:48:48Z</time>
      </trkpt>
      <trkpt lat="43.62653" lon="1.30315">
        <ele>155</ele>
        <time>2022-12-23T11:48:50Z</time>
      </trkpt>
      <trkpt lat="43.62651" lon="1.30317">
        <ele>155</ele>
        <time>2022-12-23T11:48:52Z</time>
      </trkpt>
      <trkpt lat="43.62649" lon="1.3032">
        <ele>155</ele>
        <time>2022-12-23T11:48:54Z</time>
      </trkpt>
      <trkpt lat="43.62647" lon="1.30322">
        <ele>155</ele>
        <time>2022-12-23T11:48:56Z</time>
      </trkpt>
      <trkpt lat="43.62645" lon="1.30325">
        <ele>157</ele>
        <time>2022-12-23T11:49:02Z</time>
      </trkpt>
      <trkpt lat="43.62642" lon="1.30328">
        <ele>157</ele>
        <time>2022-12-23T11:49:04Z</time>
      </trkpt>
      <trkpt lat="43.6264" lon="1.30331">
        <ele>158</ele>
        <time>2022-12-23T11:49:06Z</time>
      </trkpt>
      <trkpt lat="43.62637" lon="1.30334">
        <ele>158</ele>
        <time>2022-12-23T11:49:08Z</time>
      </trkpt>
      <trkpt lat="43.62635" lon="1.30335">
        <ele>158</ele>
        <time>2022-12-23T11:49:09Z</time>
      </trkpt>
      <trkpt lat="43.62633" lon="1.30338">
        <ele>158</ele>
        <time>2022-12-23T11:49:11Z</time>
      </trkpt>
      <trkpt lat="43.62631" lon="1.3034">
        <ele>158</ele>
        <time>2022-12-23T11:49:12Z</time>
      </trkpt>
      <trkpt lat="43.62629" lon="1.30342">
        <ele>159</ele>
        <time>2022-12-23T11:49:14Z</time>
      </trkpt>
      <trkpt lat="43.62627" lon="1.30343">
        <ele>159</ele>
        <time>2022-12-23T11:49:15Z</time>
      </trkpt>
      <trkpt lat="43.62625" lon="1.30346">
        <ele>159</ele>
        <time>2022-12-23T11:49:17Z</time>
      </trkpt>
      <trkpt lat="43.62623" lon="1.30348">
        <ele>159</ele>
        <time>2022-12-23T11:49:19Z</time>
      </trkpt>
      <trkpt lat="43.6262" lon="1.30351">
        <ele>159</ele>
        <time>2022-12-23T11:49:21Z</time>
      </trkpt>
      <trkpt lat="43.62618" lon="1.30353">
        <ele>159</ele>
        <time>2022-12-23T11:49:23Z</time>
      </trkpt>
      <trkpt lat="43.62615" lon="1.30356">
        <ele>159</ele>
        <time>2022-12-23T11:49:25Z</time>
      </trkpt>
      <trkpt lat="43.62613" lon="1.30358">
        <ele>160</ele>
        <time>2022-12-23T11:49:27Z</time>
      </trkpt>
      <trkpt lat="43.62611" lon="1.30361">
        <ele>160</ele>
        <time>2022-12-23T11:49:29Z</time>
      </trkpt>
      <trkpt lat="43.62609" lon="1.30364">
        <ele>160</ele>
        <time>2022-12-23T11:49:31Z</time>
      </trkpt>
      <trkpt lat="43.62607" lon="1.30365">
        <ele>160</ele>
        <time>2022-12-23T11:49:32Z</time>
      </trkpt>
      <trkpt lat="43.62604" lon="1.30368">
        <ele>160</ele>
        <time>2022-12-23T11:49:34Z</time>
      </trkpt>
      <trkpt lat="43.62603" lon="1.30369">
        <ele>160</ele>
        <time>2022-12-23T11:49:35Z</time>
      </trkpt>
      <trkpt lat="43.626" lon="1.30372">
        <ele>161</ele>
        <time>2022-12-23T11:49:37Z</time>
      </trkpt>
      <trkpt lat="43.62598" lon="1.30375">
        <ele>161</ele>
        <time>2022-12-23T11:49:39Z</time>
      </trkpt>
      <trkpt lat="43.62596" lon="1.30378">
        <ele>161</ele>
        <time>2022-12-23T11:49:41Z</time>
      </trkpt>
      <trkpt lat="43.62594" lon="1.3038">
        <ele>162</ele>
        <time>2022-12-23T11:49:43Z</time>
      </trkpt>
      <trkpt lat="43.62593" lon="1.30382">
        <ele>162</ele>
        <time>2022-12-23T11:49:45Z</time>
      </trkpt>
      <trkpt lat="43.62591" lon="1.30384">
        <ele>163</ele>
        <time>2022-12-23T11:49:47Z</time>
      </trkpt>
      <trkpt lat="43.62589" lon="1.30386">
        <ele>163</ele>
        <time>2022-12-23T11:49:49Z</time>
      </trkpt>
      <trkpt lat="43.62588" lon="1.30388">
        <ele>163</ele>
        <time>2022-12-23T11:49:51Z</time>
      </trkpt>
      <trkpt lat="43.62586" lon="1.3039">
        <ele>163</ele>
        <time>2022-12-23T11:49:53Z</time>
      </trkpt>
      <trkpt lat="43.62583" lon="1.30393">
        <ele>163</ele>
        <time>2022-12-23T11:49:55Z</time>
      </trkpt>
      <trkpt lat="43.62582" lon="1.30396">
        <ele>164</ele>
        <time>2022-12-23T11:49:57Z</time>
      </trkpt>
      <trkpt lat="43.6258" lon="1.30398">
        <ele>164</ele>
        <time>2022-12-23T11:49:59Z</time>
      </trkpt>
      <trkpt lat="43.62578" lon="1.30401">
        <ele>164</ele>
        <time>2022-12-23T11:50:01Z</time>
      </trkpt>
      <trkpt lat="43.62576" lon="1.30404">
        <ele>164</ele>
        <time>2022-12-23T11:50:03Z</time>
      </trkpt>
      <trkpt lat="43.62574" lon="1.30406">
        <ele>164</ele>
        <time>2022-12-23T11:50:05Z</time>
      </trkpt>
      <trkpt lat="43.62572" lon="1.30409">
        <ele>164</ele>
        <time>2022-12-23T11:50:07Z</time>
      </trkpt>
      <trkpt lat="43.62571" lon="1.30412">
        <ele>164</ele>
        <time>2022-12-23T11:50:09Z</time>
      </trkpt>
      <trkpt lat="43.62569" lon="1.30414">
        <ele>164</ele>
        <time>2022-12-23T11:50:11Z</time>
      </trkpt>
      <trkpt lat="43.62568" lon="1.30416">
        <ele>164</ele>
        <time>2022-12-23T11:50:13Z</time>
      </trkpt>
      <trkpt lat="43.62565" lon="1.30419">
        <ele>165</ele>
        <time>2022-12-23T11:50:15Z</time>
      </trkpt>
      <trkpt lat="43.62563" lon="1.30421">
        <ele>166</ele>
        <time>2022-12-23T11:50:17Z</time>
      </trkpt>
      <trkpt lat="43.62561" lon="1.30424">
        <ele>166</ele>
        <time>2022-12-23T11:50:19Z</time>
      </trkpt>
      <trkpt lat="43.62559" lon="1.30426">
        <ele>166</ele>
        <time>2022-12-23T11:50:20Z</time>
      </trkpt>
      <trkpt lat="43.62557" lon="1.30429">
        <ele>166</ele>
        <time>2022-12-23T11:50:22Z</time>
      </trkpt>
      <trkpt lat="43.62555" lon="1.30431">
        <ele>165</ele>
        <time>2022-12-23T11:50:23Z</time>
      </trkpt>
      <trkpt lat="43.62552" lon="1.30437">
        <ele>166</ele>
        <time>2022-12-23T11:50:26Z</time>
      </trkpt>
      <trkpt lat="43.62551" lon="1.30439">
        <ele>166</ele>
        <time>2022-12-23T11:50:27Z</time>
      </trkpt>
      <trkpt lat="43.62549" lon="1.30441">
        <ele>166</ele>
        <time>2022-12-23T11:50:28Z</time>
      </trkpt>
      <trkpt lat="43.62547" lon="1.30444">
        <ele>166</ele>
        <time>2022-12-23T11:50:29Z</time>
      </trkpt>
      <trkpt lat="43.62545" lon="1.30446">
        <ele>166</ele>
        <time>2022-12-23T11:50:30Z</time>
      </trkpt>
      <trkpt lat="43.62543" lon="1.30448">
        <ele>166</ele>
        <time>2022-12-23T11:50:31Z</time>
      </trkpt>
      <trkpt lat="43.62541" lon="1.30451">
        <ele>166</ele>
        <time>2022-12-23T11:50:32Z</time>
      </trkpt>
      <trkpt lat="43.62539" lon="1.30453">
        <ele>166</ele>
        <time>2022-12-23T11:50:33Z</time>
      </trkpt>
      <trkpt lat="43.62537" lon="1.30455">
        <ele>166</ele>
        <time>2022-12-23T11:50:34Z</time>
      </trkpt>
      <trkpt lat="43.62534" lon="1.30457">
        <ele>166</ele>
        <time>2022-12-23T11:50:35Z</time>
      </trkpt>
      <trkpt lat="43.62532" lon="1.3046">
        <ele>166</ele>
        <time>2022-12-23T11:50:36Z</time>
      </trkpt>
      <trkpt lat="43.6253" lon="1.30462">
        <ele>166</ele>
        <time>2022-12-23T11:50:37Z</time>
      </trkpt>
      <trkpt lat="43.62528" lon="1.30464">
        <ele>166</ele>
        <time>2022-12-23T11:50:38Z</time>
      </trkpt>
      <trkpt lat="43.62526" lon="1.30466">
        <ele>166</ele>
        <time>2022-12-23T11:50:39Z</time>
      </trkpt>
      <trkpt lat="43.62524" lon="1.30469">
        <ele>166</ele>
        <time>2022-12-23T11:50:40Z</time>
      </trkpt>
      <trkpt lat="43.62522" lon="1.30471">
        <ele>167</ele>
        <time>2022-12-23T11:50:41Z</time>
      </trkpt>
      <trkpt lat="43.6252" lon="1.30474">
        <ele>167</ele>
        <time>2022-12-23T11:50:42Z</time>
      </trkpt>
      <trkpt lat="43.62511" lon="1.30482">
        <ele>168</ele>
        <time>2022-12-23T11:50:46Z</time>
      </trkpt>
      <trkpt lat="43.62509" lon="1.30484">
        <ele>168</ele>
        <time>2022-12-23T11:50:47Z</time>
      </trkpt>
      <trkpt lat="43.62507" lon="1.30486">
        <ele>168</ele>
        <time>2022-12-23T11:50:48Z</time>
      </trkpt>
      <trkpt lat="43.62504" lon="1.30488">
        <ele>168</ele>
        <time>2022-12-23T11:50:49Z</time>
      </trkpt>
      <trkpt lat="43.62502" lon="1.3049">
        <ele>168</ele>
        <time>2022-12-23T11:50:50Z</time>
      </trkpt>
      <trkpt lat="43.62501" lon="1.30492">
        <ele>169</ele>
        <time>2022-12-23T11:50:51Z</time>
      </trkpt>
      <trkpt lat="43.62499" lon="1.30493">
        <ele>169</ele>
        <time>2022-12-23T11:50:52Z</time>
      </trkpt>
      <trkpt lat="43.62492" lon="1.30499">
        <ele>170</ele>
        <time>2022-12-23T11:50:55Z</time>
      </trkpt>
      <trkpt lat="43.6249" lon="1.30501">
        <ele>170</ele>
        <time>2022-12-23T11:50:56Z</time>
      </trkpt>
      <trkpt lat="43.62488" lon="1.30504">
        <ele>170</ele>
        <time>2022-12-23T11:50:57Z</time>
      </trkpt>
      <trkpt lat="43.62485" lon="1.30506">
        <ele>170</ele>
        <time>2022-12-23T11:50:58Z</time>
      </trkpt>
      <trkpt lat="43.62483" lon="1.30508">
        <ele>170</ele>
        <time>2022-12-23T11:50:59Z</time>
      </trkpt>
      <trkpt lat="43.62481" lon="1.3051">
        <ele>171</ele>
        <time>2022-12-23T11:51:00Z</time>
      </trkpt>
      <trkpt lat="43.62479" lon="1.30511">
        <ele>171</ele>
        <time>2022-12-23T11:51:01Z</time>
      </trkpt>
      <trkpt lat="43.62477" lon="1.30512">
        <ele>171</ele>
        <time>2022-12-23T11:51:02Z</time>
      </trkpt>
      <trkpt lat="43.62475" lon="1.30513">
        <ele>171</ele>
        <time>2022-12-23T11:51:03Z</time>
      </trkpt>
      <trkpt lat="43.62473" lon="1.30514">
        <ele>171</ele>
        <time>2022-12-23T11:51:04Z</time>
      </trkpt>
      <trkpt lat="43.6247" lon="1.30515">
        <ele>171</ele>
        <time>2022-12-23T11:51:05Z</time>
      </trkpt>
      <trkpt lat="43.62468" lon="1.30516">
        <ele>171</ele>
        <time>2022-12-23T11:51:06Z</time>
      </trkpt>
      <trkpt lat="43.62465" lon="1.30517">
        <ele>171</ele>
        <time>2022-12-23T11:51:07Z</time>
      </trkpt>
      <trkpt lat="43.62458" lon="1.30519">
        <ele>171</ele>
        <time>2022-12-23T11:51:10Z</time>
      </trkpt>
      <trkpt lat="43.62454" lon="1.3052">
        <ele>171</ele>
        <time>2022-12-23T11:51:11Z</time>
      </trkpt>
      <trkpt lat="43.62451" lon="1.30521">
        <ele>172</ele>
        <time>2022-12-23T11:51:12Z</time>
      </trkpt>
      <trkpt lat="43.62449" lon="1.30522">
        <ele>172</ele>
        <time>2022-12-23T11:51:13Z</time>
      </trkpt>
      <trkpt lat="43.62446" lon="1.30523">
        <ele>172</ele>
        <time>2022-12-23T11:51:14Z</time>
      </trkpt>
      <trkpt lat="43.62443" lon="1.30524">
        <ele>172</ele>
        <time>2022-12-23T11:51:15Z</time>
      </trkpt>
      <trkpt lat="43.6244" lon="1.30526">
        <ele>172</ele>
        <time>2022-12-23T11:51:16Z</time>
      </trkpt>
      <trkpt lat="43.62438" lon="1.30526">
        <ele>172</ele>
        <time>2022-12-23T11:51:17Z</time>
      </trkpt>
      <trkpt lat="43.62435" lon="1.30527">
        <ele>172</ele>
        <time>2022-12-23T11:51:18Z</time>
      </trkpt>
      <trkpt lat="43.62433" lon="1.30528">
        <ele>172</ele>
        <time>2022-12-23T11:51:19Z</time>
      </trkpt>
      <trkpt lat="43.62431" lon="1.30528">
        <ele>172</ele>
        <time>2022-12-23T11:51:20Z</time>
      </trkpt>
      <trkpt lat="43.62428" lon="1.30529">
        <ele>172</ele>
        <time>2022-12-23T11:51:21Z</time>
      </trkpt>
      <trkpt lat="43.62426" lon="1.3053">
        <ele>172</ele>
        <time>2022-12-23T11:51:22Z</time>
      </trkpt>
      <trkpt lat="43.62423" lon="1.30531">
        <ele>172</ele>
        <time>2022-12-23T11:51:23Z</time>
      </trkpt>
      <trkpt lat="43.62421" lon="1.30532">
        <ele>172</ele>
        <time>2022-12-23T11:51:24Z</time>
      </trkpt>
      <trkpt lat="43.62419" lon="1.30533">
        <ele>172</ele>
        <time>2022-12-23T11:51:25Z</time>
      </trkpt>
      <trkpt lat="43.62417" lon="1.30533">
        <ele>172</ele>
        <time>2022-12-23T11:51:26Z</time>
      </trkpt>
      <trkpt lat="43.62415" lon="1.30534">
        <ele>172</ele>
        <time>2022-12-23T11:51:27Z</time>
      </trkpt>
      <trkpt lat="43.62411" lon="1.30535">
        <ele>172</ele>
        <time>2022-12-23T11:51:29Z</time>
      </trkpt>
      <trkpt lat="43.62407" lon="1.30537">
        <ele>172</ele>
        <time>2022-12-23T11:51:31Z</time>
      </trkpt>
      <trkpt lat="43.62406" lon="1.30538">
        <ele>173</ele>
        <time>2022-12-23T11:51:32Z</time>
      </trkpt>
      <trkpt lat="43.62403" lon="1.30538">
        <ele>173</ele>
        <time>2022-12-23T11:51:33Z</time>
      </trkpt>
      <trkpt lat="43.62401" lon="1.30539">
        <ele>173</ele>
        <time>2022-12-23T11:51:34Z</time>
      </trkpt>
      <trkpt lat="43.62398" lon="1.3054">
        <ele>173</ele>
        <time>2022-12-23T11:51:35Z</time>
      </trkpt>
      <trkpt lat="43.62396" lon="1.3054">
        <ele>174</ele>
        <time>2022-12-23T11:51:36Z</time>
      </trkpt>
      <trkpt lat="43.62393" lon="1.30541">
        <ele>174</ele>
        <time>2022-12-23T11:51:37Z</time>
      </trkpt>
      <trkpt lat="43.6239" lon="1.30542">
        <ele>174</ele>
        <time>2022-12-23T11:51:38Z</time>
      </trkpt>
      <trkpt lat="43.62388" lon="1.30543">
        <ele>174</ele>
        <time>2022-12-23T11:51:39Z</time>
      </trkpt>
      <trkpt lat="43.62386" lon="1.30544">
        <ele>174</ele>
        <time>2022-12-23T11:51:40Z</time>
      </trkpt>
      <trkpt lat="43.62384" lon="1.30545">
        <ele>174</ele>
        <time>2022-12-23T11:51:41Z</time>
      </trkpt>
      <trkpt lat="43.62381" lon="1.30546">
        <ele>174</ele>
        <time>2022-12-23T11:51:42Z</time>
      </trkpt>
      <trkpt lat="43.62379" lon="1.30546">
        <ele>175</ele>
        <time>2022-12-23T11:51:43Z</time>
      </trkpt>
      <trkpt lat="43.62376" lon="1.30547">
        <ele>175</ele>
        <time>2022-12-23T11:51:44Z</time>
      </trkpt>
      <trkpt lat="43.62374" lon="1.30548">
        <ele>175</ele>
        <time>2022-12-23T11:51:45Z</time>
      </trkpt>
      <trkpt lat="43.62371" lon="1.30549">
        <ele>175</ele>
        <time>2022-12-23T11:51:46Z</time>
      </trkpt>
      <trkpt lat="43.62368" lon="1.3055">
        <ele>175</ele>
        <time>2022-12-23T11:51:47Z</time>
      </trkpt>
      <trkpt lat="43.62366" lon="1.30551">
        <ele>176</ele>
        <time>2022-12-23T11:51:48Z</time>
      </trkpt>
      <trkpt lat="43.62363" lon="1.30552">
        <ele>175</ele>
        <time>2022-12-23T11:51:49Z</time>
      </trkpt>
      <trkpt lat="43.6236" lon="1.30553">
        <ele>175</ele>
        <time>2022-12-23T11:51:50Z</time>
      </trkpt>
      <trkpt lat="43.62358" lon="1.30555">
        <ele>176</ele>
        <time>2022-12-23T11:51:51Z</time>
      </trkpt>
      <trkpt lat="43.62355" lon="1.30556">
        <ele>176</ele>
        <time>2022-12-23T11:51:52Z</time>
      </trkpt>
      <trkpt lat="43.62352" lon="1.30557">
        <ele>176</ele>
        <time>2022-12-23T11:51:53Z</time>
      </trkpt>
      <trkpt lat="43.62349" lon="1.30559">
        <ele>176</ele>
        <time>2022-12-23T11:51:54Z</time>
      </trkpt>
      <trkpt lat="43.62347" lon="1.3056">
        <ele>176</ele>
        <time>2022-12-23T11:51:55Z</time>
      </trkpt>
      <trkpt lat="43.62344" lon="1.30561">
        <ele>176</ele>
        <time>2022-12-23T11:51:56Z</time>
      </trkpt>
      <trkpt lat="43.62342" lon="1.30562">
        <ele>176</ele>
        <time>2022-12-23T11:51:57Z</time>
      </trkpt>
      <trkpt lat="43.62339" lon="1.30563">
        <ele>176</ele>
        <time>2022-12-23T11:51:58Z</time>
      </trkpt>
      <trkpt lat="43.62337" lon="1.30565">
        <ele>176</ele>
        <time>2022-12-23T11:51:59Z</time>
      </trkpt>
      <trkpt lat="43.62335" lon="1.30567">
        <ele>176</ele>
        <time>2022-12-23T11:52:00Z</time>
      </trkpt>
      <trkpt lat="43.62333" lon="1.30569">
        <ele>176</ele>
        <time>2022-12-23T11:52:01Z</time>
      </trkpt>
      <trkpt lat="43.62331" lon="1.3057">
        <ele>176</ele>
        <time>2022-12-23T11:52:02Z</time>
      </trkpt>
      <trkpt lat="43.62329" lon="1.30572">
        <ele>176</ele>
        <time>2022-12-23T11:52:03Z</time>
      </trkpt>
      <trkpt lat="43.62327" lon="1.30573">
        <ele>176</ele>
        <time>2022-12-23T11:52:04Z</time>
      </trkpt>
      <trkpt lat="43.62325" lon="1.30575">
        <ele>176</ele>
        <time>2022-12-23T11:52:05Z</time>
      </trkpt>
      <trkpt lat="43.62323" lon="1.30576">
        <ele>176</ele>
        <time>2022-12-23T11:52:06Z</time>
      </trkpt>
      <trkpt lat="43.6232" lon="1.30576">
        <ele>176</ele>
        <time>2022-12-23T11:52:07Z</time>
      </trkpt>
      <trkpt lat="43.62318" lon="1.30576">
        <ele>176</ele>
        <time>2022-12-23T11:52:08Z</time>
      </trkpt>
      <trkpt lat="43.62315" lon="1.30575">
        <ele>176</ele>
        <time>2022-12-23T11:52:09Z</time>
      </trkpt>
      <trkpt lat="43.62313" lon="1.30575">
        <ele>176</ele>
        <time>2022-12-23T11:52:10Z</time>
      </trkpt>
      <trkpt lat="43.6231" lon="1.30575">
        <ele>176</ele>
        <time>2022-12-23T11:52:11Z</time>
      </trkpt>
      <trkpt lat="43.62308" lon="1.30575">
        <ele>176</ele>
        <time>2022-12-23T11:52:12Z</time>
      </trkpt>
      <trkpt lat="43.62305" lon="1.30576">
        <ele>177</ele>
        <time>2022-12-23T11:52:13Z</time>
      </trkpt>
      <trkpt lat="43.62302" lon="1.30577">
        <ele>177</ele>
        <time>2022-12-23T11:52:14Z</time>
      </trkpt>
      <trkpt lat="43.623" lon="1.30578">
        <ele>178</ele>
        <time>2022-12-23T11:52:15Z</time>
      </trkpt>
      <trkpt lat="43.62297" lon="1.30578">
        <ele>178</ele>
        <time>2022-12-23T11:52:16Z</time>
      </trkpt>
      <trkpt lat="43.62294" lon="1.30579">
        <ele>177</ele>
        <time>2022-12-23T11:52:17Z</time>
      </trkpt>
      <trkpt lat="43.62291" lon="1.30578">
        <ele>178</ele>
        <time>2022-12-23T11:52:18Z</time>
      </trkpt>
      <trkpt lat="43.62288" lon="1.30577">
        <ele>178</ele>
        <time>2022-12-23T11:52:19Z</time>
      </trkpt>
      <trkpt lat="43.62286" lon="1.30575">
        <ele>178</ele>
        <time>2022-12-23T11:52:20Z</time>
      </trkpt>
      <trkpt lat="43.62284" lon="1.30573">
        <ele>178</ele>
        <time>2022-12-23T11:52:21Z</time>
      </trkpt>
      <trkpt lat="43.62282" lon="1.30572">
        <ele>177</ele>
        <time>2022-12-23T11:52:22Z</time>
      </trkpt>
      <trkpt lat="43.6228" lon="1.3057">
        <ele>177</ele>
        <time>2022-12-23T11:52:23Z</time>
      </trkpt>
      <trkpt lat="43.62278" lon="1.30569">
        <ele>177</ele>
        <time>2022-12-23T11:52:24Z</time>
      </trkpt>
      <trkpt lat="43.62276" lon="1.30566">
        <ele>177</ele>
        <time>2022-12-23T11:52:25Z</time>
      </trkpt>
      <trkpt lat="43.62273" lon="1.30564">
        <ele>177</ele>
        <time>2022-12-23T11:52:26Z</time>
      </trkpt>
      <trkpt lat="43.62271" lon="1.30563">
        <ele>177</ele>
        <time>2022-12-23T11:52:27Z</time>
      </trkpt>
      <trkpt lat="43.62268" lon="1.30562">
        <ele>177</ele>
        <time>2022-12-23T11:52:28Z</time>
      </trkpt>
      <trkpt lat="43.62266" lon="1.30561">
        <ele>177</ele>
        <time>2022-12-23T11:52:29Z</time>
      </trkpt>
      <trkpt lat="43.62264" lon="1.30559">
        <ele>177</ele>
        <time>2022-12-23T11:52:30Z</time>
      </trkpt>
      <trkpt lat="43.62262" lon="1.30557">
        <ele>177</ele>
        <time>2022-12-23T11:52:31Z</time>
      </trkpt>
      <trkpt lat="43.62259" lon="1.30556">
        <ele>177</ele>
        <time>2022-12-23T11:52:32Z</time>
      </trkpt>
      <trkpt lat="43.62257" lon="1.30554">
        <ele>177</ele>
        <time>2022-12-23T11:52:33Z</time>
      </trkpt>
      <trkpt lat="43.62254" lon="1.30553">
        <ele>177</ele>
        <time>2022-12-23T11:52:34Z</time>
      </trkpt>
      <trkpt lat="43.62252" lon="1.30552">
        <ele>177</ele>
        <time>2022-12-23T11:52:35Z</time>
      </trkpt>
      <trkpt lat="43.62249" lon="1.3055">
        <ele>177</ele>
        <time>2022-12-23T11:52:36Z</time>
      </trkpt>
      <trkpt lat="43.62247" lon="1.30549">
        <ele>177</ele>
        <time>2022-12-23T11:52:37Z</time>
      </trkpt>
      <trkpt lat="43.62244" lon="1.30548">
        <ele>177</ele>
        <time>2022-12-23T11:52:38Z</time>
      </trkpt>
      <trkpt lat="43.62241" lon="1.30547">
        <ele>178</ele>
        <time>2022-12-23T11:52:39Z</time>
      </trkpt>
      <trkpt lat="43.62239" lon="1.30546">
        <ele>178</ele>
        <time>2022-12-23T11:52:40Z</time>
      </trkpt>
      <trkpt lat="43.62236" lon="1.30545">
        <ele>178</ele>
        <time>2022-12-23T11:52:41Z</time>
      </trkpt>
      <trkpt lat="43.62234" lon="1.30544">
        <ele>178</ele>
        <time>2022-12-23T11:52:42Z</time>
      </trkpt>
      <trkpt lat="43.62231" lon="1.30543">
        <ele>178</ele>
        <time>2022-12-23T11:52:43Z</time>
      </trkpt>
      <trkpt lat="43.62228" lon="1.30542">
        <ele>178</ele>
        <time>2022-12-23T11:52:44Z</time>
      </trkpt>
      <trkpt lat="43.62225" lon="1.30541">
        <ele>177</ele>
        <time>2022-12-23T11:52:45Z</time>
      </trkpt>
      <trkpt lat="43.62223" lon="1.30539">
        <ele>177</ele>
        <time>2022-12-23T11:52:46Z</time>
      </trkpt>
      <trkpt lat="43.62221" lon="1.30538">
        <ele>177</ele>
        <time>2022-12-23T11:52:47Z</time>
      </trkpt>
      <trkpt lat="43.62218" lon="1.30537">
        <ele>178</ele>
        <time>2022-12-23T11:52:48Z</time>
      </trkpt>
      <trkpt lat="43.62216" lon="1.30536">
        <ele>178</ele>
        <time>2022-12-23T11:52:49Z</time>
      </trkpt>
      <trkpt lat="43.62213" lon="1.30534">
        <ele>178</ele>
        <time>2022-12-23T11:52:50Z</time>
      </trkpt>
      <trkpt lat="43.6221" lon="1.30534">
        <ele>178</ele>
        <time>2022-12-23T11:52:51Z</time>
      </trkpt>
      <trkpt lat="43.62208" lon="1.30532">
        <ele>178</ele>
        <time>2022-12-23T11:52:52Z</time>
      </trkpt>
      <trkpt lat="43.62206" lon="1.30531">
        <ele>178</ele>
        <time>2022-12-23T11:52:53Z</time>
      </trkpt>
      <trkpt lat="43.62203" lon="1.3053">
        <ele>178</ele>
        <time>2022-12-23T11:52:54Z</time>
      </trkpt>
      <trkpt lat="43.62201" lon="1.30528">
        <ele>178</ele>
        <time>2022-12-23T11:52:55Z</time>
      </trkpt>
      <trkpt lat="43.62198" lon="1.30527">
        <ele>178</ele>
        <time>2022-12-23T11:52:56Z</time>
      </trkpt>
      <trkpt lat="43.62195" lon="1.30526">
        <ele>178</ele>
        <time>2022-12-23T11:52:57Z</time>
      </trkpt>
      <trkpt lat="43.62192" lon="1.30526">
        <ele>178</ele>
        <time>2022-12-23T11:52:58Z</time>
      </trkpt>
      <trkpt lat="43.6219" lon="1.30525">
        <ele>178</ele>
        <time>2022-12-23T11:52:59Z</time>
      </trkpt>
      <trkpt lat="43.62187" lon="1.30524">
        <ele>178</ele>
        <time>2022-12-23T11:53:00Z</time>
      </trkpt>
      <trkpt lat="43.62182" lon="1.30523">
        <ele>178</ele>
        <time>2022-12-23T11:53:02Z</time>
      </trkpt>
      <trkpt lat="43.62179" lon="1.30523">
        <ele>178</ele>
        <time>2022-12-23T11:53:03Z</time>
      </trkpt>
      <trkpt lat="43.62176" lon="1.30522">
        <ele>178</ele>
        <time>2022-12-23T11:53:04Z</time>
      </trkpt>
      <trkpt lat="43.62174" lon="1.30522">
        <ele>178</ele>
        <time>2022-12-23T11:53:05Z</time>
      </trkpt>
      <trkpt lat="43.62171" lon="1.30522">
        <ele>178</ele>
        <time>2022-12-23T11:53:06Z</time>
      </trkpt>
      <trkpt lat="43.62168" lon="1.30521">
        <ele>178</ele>
        <time>2022-12-23T11:53:07Z</time>
      </trkpt>
      <trkpt lat="43.62166" lon="1.30521">
        <ele>178</ele>
        <time>2022-12-23T11:53:08Z</time>
      </trkpt>
      <trkpt lat="43.62163" lon="1.30519">
        <ele>178</ele>
        <time>2022-12-23T11:53:09Z</time>
      </trkpt>
      <trkpt lat="43.62161" lon="1.30518">
        <ele>178</ele>
        <time>2022-12-23T11:53:10Z</time>
      </trkpt>
      <trkpt lat="43.62159" lon="1.30516">
        <ele>178</ele>
        <time>2022-12-23T11:53:11Z</time>
      </trkpt>
      <trkpt lat="43.62156" lon="1.30515">
        <ele>178</ele>
        <time>2022-12-23T11:53:12Z</time>
      </trkpt>
      <trkpt lat="43.62147" lon="1.3051">
        <ele>178</ele>
        <time>2022-12-23T11:53:16Z</time>
      </trkpt>
      <trkpt lat="43.62139" lon="1.30506">
        <ele>178</ele>
        <time>2022-12-23T11:53:19Z</time>
      </trkpt>
      <trkpt lat="43.62137" lon="1.30505">
        <ele>178</ele>
        <time>2022-12-23T11:53:20Z</time>
      </trkpt>
      <trkpt lat="43.62129" lon="1.30501">
        <ele>178</ele>
        <time>2022-12-23T11:53:23Z</time>
      </trkpt>
      <trkpt lat="43.62119" lon="1.30499">
        <ele>179</ele>
        <time>2022-12-23T11:53:27Z</time>
      </trkpt>
      <trkpt lat="43.62109" lon="1.30496">
        <ele>178</ele>
        <time>2022-12-23T11:53:31Z</time>
      </trkpt>
      <trkpt lat="43.62101" lon="1.3049">
        <ele>178</ele>
        <time>2022-12-23T11:53:35Z</time>
      </trkpt>
      <trkpt lat="43.62091" lon="1.30484">
        <ele>178</ele>
        <time>2022-12-23T11:53:39Z</time>
      </trkpt>
      <trkpt lat="43.62082" lon="1.30477">
        <ele>179</ele>
        <time>2022-12-23T11:53:43Z</time>
      </trkpt>
      <trkpt lat="43.62074" lon="1.3047">
        <ele>178</ele>
        <time>2022-12-23T11:53:47Z</time>
      </trkpt>
      <trkpt lat="43.62069" lon="1.30468">
        <ele>179</ele>
        <time>2022-12-23T11:53:49Z</time>
      </trkpt>
      <trkpt lat="43.62067" lon="1.30467">
        <ele>179</ele>
        <time>2022-12-23T11:53:50Z</time>
      </trkpt>
      <trkpt lat="43.62057" lon="1.30461">
        <ele>179</ele>
        <time>2022-12-23T11:53:54Z</time>
      </trkpt>
      <trkpt lat="43.62048" lon="1.30464">
        <ele>179</ele>
        <time>2022-12-23T11:53:59Z</time>
      </trkpt>
      <trkpt lat="43.62042" lon="1.30475">
        <ele>178</ele>
        <time>2022-12-23T11:54:03Z</time>
      </trkpt>
      <trkpt lat="43.62037" lon="1.30488">
        <ele>179</ele>
        <time>2022-12-23T11:54:07Z</time>
      </trkpt>
      <trkpt lat="43.62031" lon="1.30497">
        <ele>179</ele>
        <time>2022-12-23T11:54:10Z</time>
      </trkpt>
      <trkpt lat="43.62028" lon="1.30504">
        <ele>179</ele>
        <time>2022-12-23T11:54:12Z</time>
      </trkpt>
      <trkpt lat="43.62026" lon="1.30507">
        <ele>179</ele>
        <time>2022-12-23T11:54:13Z</time>
      </trkpt>
      <trkpt lat="43.62024" lon="1.3051">
        <ele>179</ele>
        <time>2022-12-23T11:54:14Z</time>
      </trkpt>
      <trkpt lat="43.62023" lon="1.30513">
        <ele>179</ele>
        <time>2022-12-23T11:54:15Z</time>
      </trkpt>
      <trkpt lat="43.62021" lon="1.30516">
        <ele>179</ele>
        <time>2022-12-23T11:54:16Z</time>
      </trkpt>
      <trkpt lat="43.62019" lon="1.30519">
        <ele>179</ele>
        <time>2022-12-23T11:54:17Z</time>
      </trkpt>
      <trkpt lat="43.62018" lon="1.30522">
        <ele>179</ele>
        <time>2022-12-23T11:54:18Z</time>
      </trkpt>
      <trkpt lat="43.62016" lon="1.30526">
        <ele>179</ele>
        <time>2022-12-23T11:54:19Z</time>
      </trkpt>
      <trkpt lat="43.62015" lon="1.30528">
        <ele>178</ele>
        <time>2022-12-23T11:54:20Z</time>
      </trkpt>
      <trkpt lat="43.62013" lon="1.30531">
        <ele>178</ele>
        <time>2022-12-23T11:54:21Z</time>
      </trkpt>
      <trkpt lat="43.62011" lon="1.30534">
        <ele>179</ele>
        <time>2022-12-23T11:54:22Z</time>
      </trkpt>
      <trkpt lat="43.62009" lon="1.30537">
        <ele>179</ele>
        <time>2022-12-23T11:54:23Z</time>
      </trkpt>
      <trkpt lat="43.62007" lon="1.3054">
        <ele>179</ele>
        <time>2022-12-23T11:54:24Z</time>
      </trkpt>
      <trkpt lat="43.62006" lon="1.30542">
        <ele>179</ele>
        <time>2022-12-23T11:54:25Z</time>
      </trkpt>
      <trkpt lat="43.62004" lon="1.30545">
        <ele>179</ele>
        <time>2022-12-23T11:54:26Z</time>
      </trkpt>
      <trkpt lat="43.62002" lon="1.30547">
        <ele>179</ele>
        <time>2022-12-23T11:54:27Z</time>
      </trkpt>
      <trkpt lat="43.62001" lon="1.3055">
        <ele>179</ele>
        <time>2022-12-23T11:54:28Z</time>
      </trkpt>
      <trkpt lat="43.61999" lon="1.30553">
        <ele>179</ele>
        <time>2022-12-23T11:54:29Z</time>
      </trkpt>
      <trkpt lat="43.61997" lon="1.30555">
        <ele>179</ele>
        <time>2022-12-23T11:54:30Z</time>
      </trkpt>
      <trkpt lat="43.61996" lon="1.30558">
        <ele>179</ele>
        <time>2022-12-23T11:54:31Z</time>
      </trkpt>
      <trkpt lat="43.61994" lon="1.30561">
        <ele>179</ele>
        <time>2022-12-23T11:54:32Z</time>
      </trkpt>
      <trkpt lat="43.61992" lon="1.30564">
        <ele>180</ele>
        <time>2022-12-23T11:54:33Z</time>
      </trkpt>
      <trkpt lat="43.6199" lon="1.30566">
        <ele>180</ele>
        <time>2022-12-23T11:54:34Z</time>
      </trkpt>
      <trkpt lat="43.61988" lon="1.30568">
        <ele>180</ele>
        <time>2022-12-23T11:54:35Z</time>
      </trkpt>
      <trkpt lat="43.61986" lon="1.30571">
        <ele>180</ele>
        <time>2022-12-23T11:54:36Z</time>
      </trkpt>
      <trkpt lat="43.61984" lon="1.30573">
        <ele>180</ele>
        <time>2022-12-23T11:54:37Z</time>
      </trkpt>
      <trkpt lat="43.61982" lon="1.30576">
        <ele>180</ele>
        <time>2022-12-23T11:54:38Z</time>
      </trkpt>
      <trkpt lat="43.6198" lon="1.30579">
        <ele>180</ele>
        <time>2022-12-23T11:54:39Z</time>
      </trkpt>
      <trkpt lat="43.61978" lon="1.30581">
        <ele>180</ele>
        <time>2022-12-23T11:54:40Z</time>
      </trkpt>
      <trkpt lat="43.61976" lon="1.30584">
        <ele>180</ele>
        <time>2022-12-23T11:54:41Z</time>
      </trkpt>
      <trkpt lat="43.61975" lon="1.30586">
        <ele>180</ele>
        <time>2022-12-23T11:54:42Z</time>
      </trkpt>
      <trkpt lat="43.61972" lon="1.30589">
        <ele>180</ele>
        <time>2022-12-23T11:54:43Z</time>
      </trkpt>
      <trkpt lat="43.6197" lon="1.30591">
        <ele>180</ele>
        <time>2022-12-23T11:54:44Z</time>
      </trkpt>
      <trkpt lat="43.61968" lon="1.30594">
        <ele>180</ele>
        <time>2022-12-23T11:54:45Z</time>
      </trkpt>
      <trkpt lat="43.61966" lon="1.30596">
        <ele>180</ele>
        <time>2022-12-23T11:54:46Z</time>
      </trkpt>
      <trkpt lat="43.61965" lon="1.30598">
        <ele>180</ele>
        <time>2022-12-23T11:54:47Z</time>
      </trkpt>
      <trkpt lat="43.61963" lon="1.306">
        <ele>180</ele>
        <time>2022-12-23T11:54:48Z</time>
      </trkpt>
      <trkpt lat="43.61961" lon="1.30603">
        <ele>180</ele>
        <time>2022-12-23T11:54:49Z</time>
      </trkpt>
      <trkpt lat="43.6196" lon="1.30605">
        <ele>180</ele>
        <time>2022-12-23T11:54:50Z</time>
      </trkpt>
      <trkpt lat="43.61958" lon="1.30607">
        <ele>180</ele>
        <time>2022-12-23T11:54:51Z</time>
      </trkpt>
      <trkpt lat="43.61957" lon="1.3061">
        <ele>180</ele>
        <time>2022-12-23T11:54:52Z</time>
      </trkpt>
      <trkpt lat="43.61955" lon="1.30612">
        <ele>180</ele>
        <time>2022-12-23T11:54:53Z</time>
      </trkpt>
      <trkpt lat="43.61953" lon="1.30615">
        <ele>180</ele>
        <time>2022-12-23T11:54:54Z</time>
      </trkpt>
      <trkpt lat="43.61951" lon="1.30618">
        <ele>180</ele>
        <time>2022-12-23T11:54:55Z</time>
      </trkpt>
      <trkpt lat="43.6195" lon="1.30621">
        <ele>179</ele>
        <time>2022-12-23T11:54:56Z</time>
      </trkpt>
      <trkpt lat="43.61948" lon="1.30623">
        <ele>179</ele>
        <time>2022-12-23T11:54:57Z</time>
      </trkpt>
      <trkpt lat="43.61946" lon="1.30626">
        <ele>180</ele>
        <time>2022-12-23T11:54:58Z</time>
      </trkpt>
      <trkpt lat="43.61944" lon="1.30629">
        <ele>180</ele>
        <time>2022-12-23T11:54:59Z</time>
      </trkpt>
      <trkpt lat="43.61941" lon="1.30632">
        <ele>180</ele>
        <time>2022-12-23T11:55:00Z</time>
      </trkpt>
      <trkpt lat="43.61939" lon="1.30634">
        <ele>180</ele>
        <time>2022-12-23T11:55:01Z</time>
      </trkpt>
      <trkpt lat="43.61937" lon="1.30636">
        <ele>180</ele>
        <time>2022-12-23T11:55:02Z</time>
      </trkpt>
      <trkpt lat="43.61935" lon="1.30639">
        <ele>180</ele>
        <time>2022-12-23T11:55:03Z</time>
      </trkpt>
      <trkpt lat="43.61933" lon="1.30642">
        <ele>180</ele>
        <time>2022-12-23T11:55:04Z</time>
      </trkpt>
      <trkpt lat="43.61931" lon="1.30644">
        <ele>180</ele>
        <time>2022-12-23T11:55:05Z</time>
      </trkpt>
      <trkpt lat="43.61929" lon="1.30647">
        <ele>180</ele>
        <time>2022-12-23T11:55:06Z</time>
      </trkpt>
      <trkpt lat="43.61927" lon="1.3065">
        <ele>180</ele>
        <time>2022-12-23T11:55:07Z</time>
      </trkpt>
      <trkpt lat="43.61926" lon="1.30653">
        <ele>180</ele>
        <time>2022-12-23T11:55:08Z</time>
      </trkpt>
      <trkpt lat="43.61924" lon="1.30656">
        <ele>180</ele>
        <time>2022-12-23T11:55:09Z</time>
      </trkpt>
      <trkpt lat="43.61922" lon="1.30659">
        <ele>180</ele>
        <time>2022-12-23T11:55:10Z</time>
      </trkpt>
      <trkpt lat="43.6192" lon="1.30662">
        <ele>180</ele>
        <time>2022-12-23T11:55:11Z</time>
      </trkpt>
      <trkpt lat="43.61918" lon="1.30664">
        <ele>180</ele>
        <time>2022-12-23T11:55:12Z</time>
      </trkpt>
      <trkpt lat="43.61915" lon="1.30665">
        <ele>180</ele>
        <time>2022-12-23T11:55:13Z</time>
      </trkpt>
      <trkpt lat="43.61912" lon="1.30664">
        <ele>180</ele>
        <time>2022-12-23T11:55:14Z</time>
      </trkpt>
      <trkpt lat="43.61903" lon="1.30659">
        <ele>180</ele>
        <time>2022-12-23T11:55:17Z</time>
      </trkpt>
      <trkpt lat="43.61895" lon="1.30653">
        <ele>180</ele>
        <time>2022-12-23T11:55:20Z</time>
      </trkpt>
      <trkpt lat="43.61887" lon="1.30646">
        <ele>180</ele>
        <time>2022-12-23T11:55:23Z</time>
      </trkpt>
      <trkpt lat="43.61879" lon="1.30639">
        <ele>180</ele>
        <time>2022-12-23T11:55:27Z</time>
      </trkpt>
      <trkpt lat="43.61879" lon="1.30639">
        <ele>180</ele>
        <time>2022-12-23T11:55:28Z</time>
      </trkpt>
    </trkseg>
  </trk>
</gpx>